<?xml version='1.0' encoding='UTF-8'?>
<gpx version="1.1" creator="https://www.komoot.de" xmlns="http://www.topografix.com/GPX/1/1" xmlns:xsi="http://www.w3.org/2001/XMLSchema-instance" xsi:schemaLocation="http://www.topografix.com/GPX/1/1 http://www.topografix.com/GPX/1/1/gpx.xsd">
  <metadata>
    <name>ADFC-Ri-2026-07-07: nach Wadersloh</name>
    <author>
      <link href="https://www.komoot.de">
        <text>komoot</text>
        <type>text/html</type>
      </link>
    </author>
  </metadata>
  <wpt lat="51.767653" lon="8.274688">
    <name>Holzbank mit Aussicht auf die Landschaft</name>
    <sym>Flag, Blue</sym>
  </wpt>
  <wpt lat="51.751110" lon="8.242964">
    <name>Pättken-Trail</name>
    <sym>Flag, Blue</sym>
  </wpt>
  <wpt lat="51.736753" lon="8.247256">
    <name>Miss Elly Café &amp; Restaurant</name>
    <sym>Restaurant</sym>
  </wpt>
  <wpt lat="51.728811" lon="8.257368">
    <name>Heiligenhäuschen von 1785</name>
    <sym>Flag, Blue</sym>
  </wpt>
  <wpt lat="51.737167" lon="8.342166">
    <name>Landgasthof Hof Cramer</name>
    <sym>Restaurant</sym>
  </wpt>
  <wpt lat="51.745241" lon="8.367439">
    <name>Steinernes Wegkreuz</name>
    <sym>Flag, Blue</sym>
  </wpt>
  <wpt lat="51.817837" lon="8.430589">
    <name>Bäckerei Lange</name>
    <sym>Restaurant</sym>
  </wpt>
  <trk>
    <name>ADFC-Ri-2026-07-07: nach Wadersloh</name>
    <type>touring_bicycle</type>
    <trkseg>
      <trkpt lat="51.818329" lon="8.430666">
        <ele>77.993771</ele>
        <time>2026-07-03T18:58:53.554Z</time>
      </trkpt>
      <trkpt lat="51.818379" lon="8.430310">
        <ele>77.993771</ele>
        <time>2026-07-03T18:58:58.394Z</time>
      </trkpt>
      <trkpt lat="51.818384" lon="8.430046">
        <ele>77.993771</ele>
        <time>2026-07-03T18:59:01.871Z</time>
      </trkpt>
      <trkpt lat="51.818329" lon="8.430039">
        <ele>77.993771</ele>
        <time>2026-07-03T18:59:03.412Z</time>
      </trkpt>
      <trkpt lat="51.818331" lon="8.429951">
        <ele>77.993771</ele>
        <time>2026-07-03T18:59:04.568Z</time>
      </trkpt>
      <trkpt lat="51.818332" lon="8.429853">
        <ele>77.993771</ele>
        <time>2026-07-03T18:59:06.277Z</time>
      </trkpt>
      <trkpt lat="51.818488" lon="8.429866">
        <ele>77.993771</ele>
        <time>2026-07-03T18:59:10.647Z</time>
      </trkpt>
      <trkpt lat="51.818647" lon="8.428769">
        <ele>77.824835</ele>
        <time>2026-07-03T18:59:35.436Z</time>
      </trkpt>
      <trkpt lat="51.818774" lon="8.428103">
        <ele>77.682826</ele>
        <time>2026-07-03T18:59:50.740Z</time>
      </trkpt>
      <trkpt lat="51.818892" lon="8.427613">
        <ele>77.575679</ele>
        <time>2026-07-03T19:00:02.255Z</time>
      </trkpt>
      <trkpt lat="51.819292" lon="8.426371">
        <ele>77.393212</ele>
        <time>2026-07-03T19:00:33.539Z</time>
      </trkpt>
      <trkpt lat="51.819679" lon="8.425166">
        <ele>77.373949</ele>
        <time>2026-07-03T19:01:04.622Z</time>
      </trkpt>
      <trkpt lat="51.819718" lon="8.425042">
        <ele>77.371975</ele>
        <time>2026-07-03T19:01:06.655Z</time>
      </trkpt>
      <trkpt lat="51.821049" lon="8.420895">
        <ele>77.611750</ele>
        <time>2026-07-03T19:02:12.120Z</time>
      </trkpt>
      <trkpt lat="51.821342" lon="8.419785">
        <ele>77.703750</ele>
        <time>2026-07-03T19:02:29.099Z</time>
      </trkpt>
      <trkpt lat="51.821478" lon="8.419153">
        <ele>77.754758</ele>
        <time>2026-07-03T19:02:38.544Z</time>
      </trkpt>
      <trkpt lat="51.821678" lon="8.418008">
        <ele>77.847375</ele>
        <time>2026-07-03T19:02:55.326Z</time>
      </trkpt>
      <trkpt lat="51.821803" lon="8.416947">
        <ele>77.931683</ele>
        <time>2026-07-03T19:03:10.643Z</time>
      </trkpt>
      <trkpt lat="51.821929" lon="8.414807">
        <ele>77.930322</ele>
        <time>2026-07-03T19:03:40.388Z</time>
      </trkpt>
      <trkpt lat="51.822018" lon="8.413079">
        <ele>77.860387</ele>
        <time>2026-07-03T19:04:03.392Z</time>
      </trkpt>
      <trkpt lat="51.822230" lon="8.408792">
        <ele>77.929746</ele>
        <time>2026-07-03T19:05:03.130Z</time>
      </trkpt>
      <trkpt lat="51.822225" lon="8.405685">
        <ele>77.829059</ele>
        <time>2026-07-03T19:05:46.390Z</time>
      </trkpt>
      <trkpt lat="51.822251" lon="8.405366">
        <ele>77.800796</ele>
        <time>2026-07-03T19:05:50.571Z</time>
      </trkpt>
      <trkpt lat="51.822515" lon="8.403588">
        <ele>77.468615</ele>
        <time>2026-07-03T19:06:13.770Z</time>
      </trkpt>
      <trkpt lat="51.822764" lon="8.401964">
        <ele>77.040555</ele>
        <time>2026-07-03T19:06:35.124Z</time>
      </trkpt>
      <trkpt lat="51.822834" lon="8.401504">
        <ele>76.966685</ele>
        <time>2026-07-03T19:06:41.333Z</time>
      </trkpt>
      <trkpt lat="51.823113" lon="8.399832">
        <ele>76.841006</ele>
        <time>2026-07-03T19:07:04.550Z</time>
      </trkpt>
      <trkpt lat="51.823986" lon="8.395834">
        <ele>76.876642</ele>
        <time>2026-07-03T19:08:03.753Z</time>
      </trkpt>
      <trkpt lat="51.824529" lon="8.393726">
        <ele>76.608233</ele>
        <time>2026-07-03T19:08:33.897Z</time>
      </trkpt>
      <trkpt lat="51.824662" lon="8.393064">
        <ele>76.528544</ele>
        <time>2026-07-03T19:08:43.070Z</time>
      </trkpt>
      <trkpt lat="51.824735" lon="8.392159">
        <ele>76.425313</ele>
        <time>2026-07-03T19:08:55.152Z</time>
      </trkpt>
      <trkpt lat="51.824747" lon="8.390278">
        <ele>76.212773</ele>
        <time>2026-07-03T19:09:20.447Z</time>
      </trkpt>
      <trkpt lat="51.824804" lon="8.390170">
        <ele>76.196798</ele>
        <time>2026-07-03T19:09:22.332Z</time>
      </trkpt>
      <trkpt lat="51.824871" lon="8.390128">
        <ele>76.183721</ele>
        <time>2026-07-03T19:09:23.850Z</time>
      </trkpt>
      <trkpt lat="51.824802" lon="8.389749">
        <ele>76.139278</ele>
        <time>2026-07-03T19:09:29.099Z</time>
      </trkpt>
      <trkpt lat="51.824787" lon="8.389261">
        <ele>76.084318</ele>
        <time>2026-07-03T19:09:35.598Z</time>
      </trkpt>
      <trkpt lat="51.824875" lon="8.388444">
        <ele>75.991032</ele>
        <time>2026-07-03T19:09:46.689Z</time>
      </trkpt>
      <trkpt lat="51.824955" lon="8.387893">
        <ele>75.927366</ele>
        <time>2026-07-03T19:09:54.133Z</time>
      </trkpt>
      <trkpt lat="51.824860" lon="8.387862">
        <ele>75.914541</ele>
        <time>2026-07-03T19:09:56.192Z</time>
      </trkpt>
      <trkpt lat="51.824268" lon="8.387862">
        <ele>75.838019</ele>
        <time>2026-07-03T19:10:08.873Z</time>
      </trkpt>
      <trkpt lat="51.822174" lon="8.388146">
        <ele>75.741452</ele>
        <time>2026-07-03T19:10:54.799Z</time>
      </trkpt>
      <trkpt lat="51.821827" lon="8.388193">
        <ele>75.758265</ele>
        <time>2026-07-03T19:11:02.819Z</time>
      </trkpt>
      <trkpt lat="51.821727" lon="8.388227">
        <ele>75.763199</ele>
        <time>2026-07-03T19:11:05.221Z</time>
      </trkpt>
      <trkpt lat="51.820918" lon="8.388537">
        <ele>75.850448</ele>
        <time>2026-07-03T19:11:24.645Z</time>
      </trkpt>
      <trkpt lat="51.820773" lon="8.388562">
        <ele>75.872132</ele>
        <time>2026-07-03T19:11:28.062Z</time>
      </trkpt>
      <trkpt lat="51.820692" lon="8.388520">
        <ele>75.884780</ele>
        <time>2026-07-03T19:11:30.062Z</time>
      </trkpt>
      <trkpt lat="51.820487" lon="8.388423">
        <ele>75.916541</ele>
        <time>2026-07-03T19:11:35.057Z</time>
      </trkpt>
      <trkpt lat="51.819965" lon="8.388149">
        <ele>75.998146</ele>
        <time>2026-07-03T19:11:47.489Z</time>
      </trkpt>
      <trkpt lat="51.819906" lon="8.388081">
        <ele>76.008918</ele>
        <time>2026-07-03T19:11:49.078Z</time>
      </trkpt>
      <trkpt lat="51.819640" lon="8.386786">
        <ele>76.112607</ele>
        <time>2026-07-03T19:12:07.502Z</time>
      </trkpt>
      <trkpt lat="51.819387" lon="8.384274">
        <ele>76.276547</ele>
        <time>2026-07-03T19:12:43.696Z</time>
      </trkpt>
      <trkpt lat="51.819328" lon="8.383431">
        <ele>76.318588</ele>
        <time>2026-07-03T19:12:56.058Z</time>
      </trkpt>
      <trkpt lat="51.819225" lon="8.382881">
        <ele>76.347067</ele>
        <time>2026-07-03T19:13:04.251Z</time>
      </trkpt>
      <trkpt lat="51.819113" lon="8.382609">
        <ele>76.363262</ele>
        <time>2026-07-03T19:13:08.781Z</time>
      </trkpt>
      <trkpt lat="51.818947" lon="8.382392">
        <ele>76.380371</ele>
        <time>2026-07-03T19:13:13.490Z</time>
      </trkpt>
      <trkpt lat="51.818753" lon="8.382242">
        <ele>76.360128</ele>
        <time>2026-07-03T19:13:18.108Z</time>
      </trkpt>
      <trkpt lat="51.816911" lon="8.381236">
        <ele>75.489262</ele>
        <time>2026-07-03T19:13:57.384Z</time>
      </trkpt>
      <trkpt lat="51.815118" lon="8.380108">
        <ele>75.312949</ele>
        <time>2026-07-03T19:14:40.196Z</time>
      </trkpt>
      <trkpt lat="51.814788" lon="8.380363">
        <ele>75.304056</ele>
        <time>2026-07-03T19:14:48.681Z</time>
      </trkpt>
      <trkpt lat="51.814384" lon="8.380671">
        <ele>75.293196</ele>
        <time>2026-07-03T19:14:58.797Z</time>
      </trkpt>
      <trkpt lat="51.813918" lon="8.380990">
        <ele>75.280892</ele>
        <time>2026-07-03T19:15:09.914Z</time>
      </trkpt>
      <trkpt lat="51.813024" lon="8.381656">
        <ele>75.125648</ele>
        <time>2026-07-03T19:15:30.451Z</time>
      </trkpt>
      <trkpt lat="51.811592" lon="8.382189">
        <ele>75.082670</ele>
        <time>2026-07-03T19:16:02.841Z</time>
      </trkpt>
      <trkpt lat="51.811309" lon="8.382210">
        <ele>75.154733</ele>
        <time>2026-07-03T19:16:09.492Z</time>
      </trkpt>
      <trkpt lat="51.810624" lon="8.381896">
        <ele>75.335841</ele>
        <time>2026-07-03T19:16:26.506Z</time>
      </trkpt>
      <trkpt lat="51.809982" lon="8.381575">
        <ele>75.447389</ele>
        <time>2026-07-03T19:16:42.744Z</time>
      </trkpt>
      <trkpt lat="51.809301" lon="8.381282">
        <ele>75.516463</ele>
        <time>2026-07-03T19:16:58.808Z</time>
      </trkpt>
      <trkpt lat="51.809165" lon="8.381229">
        <ele>75.530176</ele>
        <time>2026-07-03T19:17:01.902Z</time>
      </trkpt>
      <trkpt lat="51.808950" lon="8.381201">
        <ele>75.551318</ele>
        <time>2026-07-03T19:17:06.605Z</time>
      </trkpt>
      <trkpt lat="51.807811" lon="8.380820">
        <ele>75.629559</ele>
        <time>2026-07-03T19:17:31.308Z</time>
      </trkpt>
      <trkpt lat="51.806629" lon="8.380422">
        <ele>75.765669</ele>
        <time>2026-07-03T19:17:59.404Z</time>
      </trkpt>
      <trkpt lat="51.806065" lon="8.380243">
        <ele>75.989004</ele>
        <time>2026-07-03T19:18:13.471Z</time>
      </trkpt>
      <trkpt lat="51.805876" lon="8.380200">
        <ele>76.063168</ele>
        <time>2026-07-03T19:18:18.144Z</time>
      </trkpt>
      <trkpt lat="51.805691" lon="8.380230">
        <ele>76.135414</ele>
        <time>2026-07-03T19:18:22.714Z</time>
      </trkpt>
      <trkpt lat="51.804731" lon="8.380569">
        <ele>76.469226</ele>
        <time>2026-07-03T19:18:45.627Z</time>
      </trkpt>
      <trkpt lat="51.804646" lon="8.380607">
        <ele>76.491355</ele>
        <time>2026-07-03T19:18:47.647Z</time>
      </trkpt>
      <trkpt lat="51.804592" lon="8.380672">
        <ele>76.508246</ele>
        <time>2026-07-03T19:18:49.176Z</time>
      </trkpt>
      <trkpt lat="51.804542" lon="8.380860">
        <ele>76.539999</ele>
        <time>2026-07-03T19:18:52.076Z</time>
      </trkpt>
      <trkpt lat="51.804475" lon="8.380907">
        <ele>76.558325</ele>
        <time>2026-07-03T19:18:53.780Z</time>
      </trkpt>
      <trkpt lat="51.804400" lon="8.380940">
        <ele>76.577828</ele>
        <time>2026-07-03T19:18:55.560Z</time>
      </trkpt>
      <trkpt lat="51.804330" lon="8.380574">
        <ele>76.637271</ele>
        <time>2026-07-03T19:19:01.056Z</time>
      </trkpt>
      <trkpt lat="51.804317" lon="8.380309">
        <ele>76.678518</ele>
        <time>2026-07-03T19:19:04.872Z</time>
      </trkpt>
      <trkpt lat="51.804172" lon="8.379596">
        <ele>76.794976</ele>
        <time>2026-07-03T19:19:15.716Z</time>
      </trkpt>
      <trkpt lat="51.803744" lon="8.377673">
        <ele>76.875366</ele>
        <time>2026-07-03T19:19:45.000Z</time>
      </trkpt>
      <trkpt lat="51.803013" lon="8.374411">
        <ele>76.538912</ele>
        <time>2026-07-03T19:20:30.648Z</time>
      </trkpt>
      <trkpt lat="51.802490" lon="8.372626">
        <ele>76.387385</ele>
        <time>2026-07-03T19:20:57.004Z</time>
      </trkpt>
      <trkpt lat="51.802385" lon="8.372294">
        <ele>76.369838</ele>
        <time>2026-07-03T19:21:02.009Z</time>
      </trkpt>
      <trkpt lat="51.802236" lon="8.371938">
        <ele>76.349609</ele>
        <time>2026-07-03T19:21:07.856Z</time>
      </trkpt>
      <trkpt lat="51.802194" lon="8.371870">
        <ele>76.345086</ele>
        <time>2026-07-03T19:21:09.164Z</time>
      </trkpt>
      <trkpt lat="51.802148" lon="8.371879">
        <ele>76.341560</ele>
        <time>2026-07-03T19:21:10.210Z</time>
      </trkpt>
      <trkpt lat="51.802057" lon="8.371719">
        <ele>76.331331</ele>
        <time>2026-07-03T19:21:13.213Z</time>
      </trkpt>
      <trkpt lat="51.801968" lon="8.371574">
        <ele>76.321717</ele>
        <time>2026-07-03T19:21:16.037Z</time>
      </trkpt>
      <trkpt lat="51.801972" lon="8.371490">
        <ele>76.317752</ele>
        <time>2026-07-03T19:21:17.219Z</time>
      </trkpt>
      <trkpt lat="51.802017" lon="8.371415">
        <ele>76.321224</ele>
        <time>2026-07-03T19:21:18.663Z</time>
      </trkpt>
      <trkpt lat="51.802058" lon="8.371353">
        <ele>76.324459</ele>
        <time>2026-07-03T19:21:19.929Z</time>
      </trkpt>
      <trkpt lat="51.802146" lon="8.371396">
        <ele>76.329757</ele>
        <time>2026-07-03T19:21:22.015Z</time>
      </trkpt>
      <trkpt lat="51.802186" lon="8.371375">
        <ele>76.332180</ele>
        <time>2026-07-03T19:21:22.952Z</time>
      </trkpt>
      <trkpt lat="51.802800" lon="8.370984">
        <ele>76.370210</ele>
        <time>2026-07-03T19:21:38.084Z</time>
      </trkpt>
      <trkpt lat="51.803051" lon="8.370784">
        <ele>76.386335</ele>
        <time>2026-07-03T19:21:44.537Z</time>
      </trkpt>
      <trkpt lat="51.803349" lon="8.370487">
        <ele>76.406508</ele>
        <time>2026-07-03T19:21:52.575Z</time>
      </trkpt>
      <trkpt lat="51.803644" lon="8.370065">
        <ele>76.394994</ele>
        <time>2026-07-03T19:22:01.230Z</time>
      </trkpt>
      <trkpt lat="51.803897" lon="8.369563">
        <ele>76.318660</ele>
        <time>2026-07-03T19:22:09.498Z</time>
      </trkpt>
      <trkpt lat="51.804124" lon="8.368907">
        <ele>76.230055</ele>
        <time>2026-07-03T19:22:19.275Z</time>
      </trkpt>
      <trkpt lat="51.804237" lon="8.368356">
        <ele>76.161631</ele>
        <time>2026-07-03T19:22:26.941Z</time>
      </trkpt>
      <trkpt lat="51.804291" lon="8.368056">
        <ele>76.124803</ele>
        <time>2026-07-03T19:22:31.101Z</time>
      </trkpt>
      <trkpt lat="51.804302" lon="8.367987">
        <ele>76.116404</ele>
        <time>2026-07-03T19:22:32.056Z</time>
      </trkpt>
      <trkpt lat="51.804395" lon="8.367369">
        <ele>76.108646</ele>
        <time>2026-07-03T19:22:40.650Z</time>
      </trkpt>
      <trkpt lat="51.805254" lon="8.361751">
        <ele>76.719889</ele>
        <time>2026-07-03T19:24:03.433Z</time>
      </trkpt>
      <trkpt lat="51.805338" lon="8.361222">
        <ele>76.703766</ele>
        <time>2026-07-03T19:24:11.017Z</time>
      </trkpt>
      <trkpt lat="51.805364" lon="8.360922">
        <ele>76.694824</ele>
        <time>2026-07-03T19:24:15.182Z</time>
      </trkpt>
      <trkpt lat="51.805353" lon="8.360634">
        <ele>76.686306</ele>
        <time>2026-07-03T19:24:19.132Z</time>
      </trkpt>
      <trkpt lat="51.805110" lon="8.360521">
        <ele>76.674235</ele>
        <time>2026-07-03T19:24:24.687Z</time>
      </trkpt>
      <trkpt lat="51.805353" lon="8.360634">
        <ele>76.662164</ele>
        <time>2026-07-03T19:24:30.201Z</time>
      </trkpt>
      <trkpt lat="51.805255" lon="8.357685">
        <ele>76.245607</ele>
        <time>2026-07-03T19:25:08.832Z</time>
      </trkpt>
      <trkpt lat="51.805272" lon="8.357053">
        <ele>76.137560</ele>
        <time>2026-07-03T19:25:17.076Z</time>
      </trkpt>
      <trkpt lat="51.805293" lon="8.356615">
        <ele>76.180722</ele>
        <time>2026-07-03T19:25:22.970Z</time>
      </trkpt>
      <trkpt lat="51.805305" lon="8.356266">
        <ele>76.215063</ele>
        <time>2026-07-03T19:25:27.732Z</time>
      </trkpt>
      <trkpt lat="51.805366" lon="8.354373">
        <ele>76.401299</ele>
        <time>2026-07-03T19:25:55.213Z</time>
      </trkpt>
      <trkpt lat="51.805501" lon="8.350691">
        <ele>76.859698</ele>
        <time>2026-07-03T19:26:48.364Z</time>
      </trkpt>
      <trkpt lat="51.803344" lon="8.350404">
        <ele>76.647386</ele>
        <time>2026-07-03T19:27:35.204Z</time>
      </trkpt>
      <trkpt lat="51.801857" lon="8.350398">
        <ele>76.407837</ele>
        <time>2026-07-03T19:28:06.787Z</time>
      </trkpt>
      <trkpt lat="51.801631" lon="8.349015">
        <ele>76.383756</ele>
        <time>2026-07-03T19:28:26.223Z</time>
      </trkpt>
      <trkpt lat="51.801192" lon="8.346396">
        <ele>76.748486</ele>
        <time>2026-07-03T19:29:05.779Z</time>
      </trkpt>
      <trkpt lat="51.801062" lon="8.346030">
        <ele>76.833289</ele>
        <time>2026-07-03T19:29:12.074Z</time>
      </trkpt>
      <trkpt lat="51.800750" lon="8.345451">
        <ele>76.934408</ele>
        <time>2026-07-03T19:29:23.403Z</time>
      </trkpt>
      <trkpt lat="51.800552" lon="8.345191">
        <ele>76.885344</ele>
        <time>2026-07-03T19:29:29.342Z</time>
      </trkpt>
      <trkpt lat="51.799858" lon="8.344714">
        <ele>76.740288</ele>
        <time>2026-07-03T19:29:45.786Z</time>
      </trkpt>
      <trkpt lat="51.799715" lon="8.344671">
        <ele>76.712309</ele>
        <time>2026-07-03T19:29:48.769Z</time>
      </trkpt>
      <trkpt lat="51.799133" lon="8.344692">
        <ele>76.598039</ele>
        <time>2026-07-03T19:30:00.458Z</time>
      </trkpt>
      <trkpt lat="51.798948" lon="8.344636">
        <ele>76.551304</ele>
        <time>2026-07-03T19:30:04.211Z</time>
      </trkpt>
      <trkpt lat="51.798831" lon="8.344553">
        <ele>76.519580</ele>
        <time>2026-07-03T19:30:06.761Z</time>
      </trkpt>
      <trkpt lat="51.798648" lon="8.344345">
        <ele>76.464037</ele>
        <time>2026-07-03T19:30:11.205Z</time>
      </trkpt>
      <trkpt lat="51.797919" lon="8.342937">
        <ele>76.182055</ele>
        <time>2026-07-03T19:30:35.601Z</time>
      </trkpt>
      <trkpt lat="51.797259" lon="8.341639">
        <ele>76.452384</ele>
        <time>2026-07-03T19:31:00.956Z</time>
      </trkpt>
      <trkpt lat="51.796991" lon="8.341112">
        <ele>76.580631</ele>
        <time>2026-07-03T19:31:11.157Z</time>
      </trkpt>
      <trkpt lat="51.796196" lon="8.339548">
        <ele>76.874999</ele>
        <time>2026-07-03T19:31:39.369Z</time>
      </trkpt>
      <trkpt lat="51.796091" lon="8.339206">
        <ele>76.922317</ele>
        <time>2026-07-03T19:31:44.659Z</time>
      </trkpt>
      <trkpt lat="51.796026" lon="8.338828">
        <ele>76.970939</ele>
        <time>2026-07-03T19:31:50.254Z</time>
      </trkpt>
      <trkpt lat="51.796014" lon="8.338442">
        <ele>77.018836</ele>
        <time>2026-07-03T19:31:55.861Z</time>
      </trkpt>
      <trkpt lat="51.796057" lon="8.336520">
        <ele>77.325620</ele>
        <time>2026-07-03T19:32:24.469Z</time>
      </trkpt>
      <trkpt lat="51.796089" lon="8.334850">
        <ele>77.561481</ele>
        <time>2026-07-03T19:32:48.028Z</time>
      </trkpt>
      <trkpt lat="51.796149" lon="8.332178">
        <ele>77.582898</ele>
        <time>2026-07-03T19:33:24.135Z</time>
      </trkpt>
      <trkpt lat="51.796203" lon="8.329414">
        <ele>77.976575</ele>
        <time>2026-07-03T19:34:04.505Z</time>
      </trkpt>
      <trkpt lat="51.796058" lon="8.329173">
        <ele>77.994730</ele>
        <time>2026-07-03T19:34:09.390Z</time>
      </trkpt>
      <trkpt lat="51.794321" lon="8.330067">
        <ele>78.033390</ele>
        <time>2026-07-03T19:34:50.069Z</time>
      </trkpt>
      <trkpt lat="51.793835" lon="8.330316">
        <ele>77.991454</ele>
        <time>2026-07-03T19:35:00.735Z</time>
      </trkpt>
      <trkpt lat="51.793657" lon="8.330365">
        <ele>77.976601</ele>
        <time>2026-07-03T19:35:04.579Z</time>
      </trkpt>
      <trkpt lat="51.793477" lon="8.330354">
        <ele>77.961784</ele>
        <time>2026-07-03T19:35:08.465Z</time>
      </trkpt>
      <trkpt lat="51.793254" lon="8.330269">
        <ele>77.942938</ele>
        <time>2026-07-03T19:35:13.425Z</time>
      </trkpt>
      <trkpt lat="51.791994" lon="8.329668">
        <ele>77.775450</ele>
        <time>2026-07-03T19:35:43.210Z</time>
      </trkpt>
      <trkpt lat="51.791793" lon="8.329574">
        <ele>77.742477</ele>
        <time>2026-07-03T19:35:47.902Z</time>
      </trkpt>
      <trkpt lat="51.791283" lon="8.329334">
        <ele>77.658773</ele>
        <time>2026-07-03T19:35:59.161Z</time>
      </trkpt>
      <trkpt lat="51.790775" lon="8.328994">
        <ele>77.487917</ele>
        <time>2026-07-03T19:36:10.196Z</time>
      </trkpt>
      <trkpt lat="51.790229" lon="8.328264">
        <ele>77.163543</ele>
        <time>2026-07-03T19:36:24.497Z</time>
      </trkpt>
      <trkpt lat="51.790188" lon="8.328208">
        <ele>77.138970</ele>
        <time>2026-07-03T19:36:25.595Z</time>
      </trkpt>
      <trkpt lat="51.790112" lon="8.328107">
        <ele>77.093929</ele>
        <time>2026-07-03T19:36:27.615Z</time>
      </trkpt>
      <trkpt lat="51.789432" lon="8.327212">
        <ele>76.788966</ele>
        <time>2026-07-03T19:36:46.281Z</time>
      </trkpt>
      <trkpt lat="51.789320" lon="8.327573">
        <ele>76.784508</ele>
        <time>2026-07-03T19:36:51.895Z</time>
      </trkpt>
      <trkpt lat="51.788845" lon="8.329064">
        <ele>76.765997</ele>
        <time>2026-07-03T19:37:16.307Z</time>
      </trkpt>
      <trkpt lat="51.788240" lon="8.331006">
        <ele>76.667784</ele>
        <time>2026-07-03T19:37:47.102Z</time>
      </trkpt>
      <trkpt lat="51.788221" lon="8.331185">
        <ele>76.657861</ele>
        <time>2026-07-03T19:37:49.536Z</time>
      </trkpt>
      <trkpt lat="51.788517" lon="8.332857">
        <ele>76.628633</ele>
        <time>2026-07-03T19:38:13.931Z</time>
      </trkpt>
      <trkpt lat="51.788497" lon="8.333154">
        <ele>76.639799</ele>
        <time>2026-07-03T19:38:18.234Z</time>
      </trkpt>
      <trkpt lat="51.788517" lon="8.333379">
        <ele>76.648294</ele>
        <time>2026-07-03T19:38:21.524Z</time>
      </trkpt>
      <trkpt lat="51.788589" lon="8.334322">
        <ele>76.683804</ele>
        <time>2026-07-03T19:38:35.698Z</time>
      </trkpt>
      <trkpt lat="51.786317" lon="8.335820">
        <ele>76.663023</ele>
        <time>2026-07-03T19:39:30.561Z</time>
      </trkpt>
      <trkpt lat="51.786093" lon="8.335939">
        <ele>76.584734</ele>
        <time>2026-07-03T19:39:35.524Z</time>
      </trkpt>
      <trkpt lat="51.785562" lon="8.336104">
        <ele>76.405197</ele>
        <time>2026-07-03T19:39:46.829Z</time>
      </trkpt>
      <trkpt lat="51.784804" lon="8.336339">
        <ele>76.148930</ele>
        <time>2026-07-03T19:40:02.798Z</time>
      </trkpt>
      <trkpt lat="51.782756" lon="8.336988">
        <ele>75.779693</ele>
        <time>2026-07-03T19:40:46.810Z</time>
      </trkpt>
      <trkpt lat="51.782397" lon="8.336989">
        <ele>76.003216</ele>
        <time>2026-07-03T19:40:55.049Z</time>
      </trkpt>
      <trkpt lat="51.777727" lon="8.336560">
        <ele>79.146510</ele>
        <time>2026-07-03T19:42:53.643Z</time>
      </trkpt>
      <trkpt lat="51.777688" lon="8.332175">
        <ele>80.723710</ele>
        <time>2026-07-03T19:44:00.526Z</time>
      </trkpt>
      <trkpt lat="51.777682" lon="8.330423">
        <ele>81.250408</ele>
        <time>2026-07-03T19:44:26.547Z</time>
      </trkpt>
      <trkpt lat="51.777596" lon="8.329834">
        <ele>81.393561</ele>
        <time>2026-07-03T19:44:35.179Z</time>
      </trkpt>
      <trkpt lat="51.777347" lon="8.328667">
        <ele>81.685566</ele>
        <time>2026-07-03T19:44:52.571Z</time>
      </trkpt>
      <trkpt lat="51.776857" lon="8.326171">
        <ele>83.029406</ele>
        <time>2026-07-03T19:45:33.052Z</time>
      </trkpt>
      <trkpt lat="51.776819" lon="8.325850">
        <ele>83.246182</ele>
        <time>2026-07-03T19:45:38.871Z</time>
      </trkpt>
      <trkpt lat="51.776821" lon="8.325570">
        <ele>83.431913</ele>
        <time>2026-07-03T19:45:43.909Z</time>
      </trkpt>
      <trkpt lat="51.776853" lon="8.325502">
        <ele>83.488580</ele>
        <time>2026-07-03T19:45:46.248Z</time>
      </trkpt>
      <trkpt lat="51.776843" lon="8.325373">
        <ele>83.574812</ele>
        <time>2026-07-03T19:45:48.560Z</time>
      </trkpt>
      <trkpt lat="51.776836" lon="8.325243">
        <ele>83.661365</ele>
        <time>2026-07-03T19:45:50.964Z</time>
      </trkpt>
      <trkpt lat="51.776730" lon="8.325171">
        <ele>83.784625</ele>
        <time>2026-07-03T19:45:55.963Z</time>
      </trkpt>
      <trkpt lat="51.776437" lon="8.324489">
        <ele>84.507980</ele>
        <time>2026-07-03T19:46:18.482Z</time>
      </trkpt>
      <trkpt lat="51.776228" lon="8.323825">
        <ele>85.171466</ele>
        <time>2026-07-03T19:46:38.246Z</time>
      </trkpt>
      <trkpt lat="51.776122" lon="8.323161">
        <ele>85.782199</ele>
        <time>2026-07-03T19:46:55.871Z</time>
      </trkpt>
      <trkpt lat="51.776130" lon="8.323053">
        <ele>85.879072</ele>
        <time>2026-07-03T19:46:58.682Z</time>
      </trkpt>
      <trkpt lat="51.776195" lon="8.323002">
        <ele>85.983076</ele>
        <time>2026-07-03T19:47:01.733Z</time>
      </trkpt>
      <trkpt lat="51.776192" lon="8.322918">
        <ele>86.058012</ele>
        <time>2026-07-03T19:47:03.132Z</time>
      </trkpt>
      <trkpt lat="51.776188" lon="8.322826">
        <ele>86.140150</ele>
        <time>2026-07-03T19:47:04.679Z</time>
      </trkpt>
      <trkpt lat="51.776185" lon="8.322750">
        <ele>86.207974</ele>
        <time>2026-07-03T19:47:05.951Z</time>
      </trkpt>
      <trkpt lat="51.776105" lon="8.322702">
        <ele>86.330806</ele>
        <time>2026-07-03T19:47:09.515Z</time>
      </trkpt>
      <trkpt lat="51.776061" lon="8.322591">
        <ele>86.451532</ele>
        <time>2026-07-03T19:47:12.953Z</time>
      </trkpt>
      <trkpt lat="51.776030" lon="8.322435">
        <ele>86.614998</ele>
        <time>2026-07-03T19:47:16.522Z</time>
      </trkpt>
      <trkpt lat="51.776025" lon="8.322163">
        <ele>86.886483</ele>
        <time>2026-07-03T19:47:22.448Z</time>
      </trkpt>
      <trkpt lat="51.776063" lon="8.320841">
        <ele>88.206821</ele>
        <time>2026-07-03T19:47:51.714Z</time>
      </trkpt>
      <trkpt lat="51.776069" lon="8.320759">
        <ele>88.289199</ele>
        <time>2026-07-03T19:47:53.601Z</time>
      </trkpt>
      <trkpt lat="51.776041" lon="8.320050">
        <ele>88.997984</ele>
        <time>2026-07-03T19:48:09.639Z</time>
      </trkpt>
      <trkpt lat="51.776024" lon="8.319861">
        <ele>89.188525</ele>
        <time>2026-07-03T19:48:13.906Z</time>
      </trkpt>
      <trkpt lat="51.775987" lon="8.319484">
        <ele>89.557900</ele>
        <time>2026-07-03T19:48:22.434Z</time>
      </trkpt>
      <trkpt lat="51.775970" lon="8.319093">
        <ele>89.930941</ele>
        <time>2026-07-03T19:48:31.199Z</time>
      </trkpt>
      <trkpt lat="51.775993" lon="8.318721">
        <ele>90.286745</ele>
        <time>2026-07-03T19:48:39.495Z</time>
      </trkpt>
      <trkpt lat="51.775995" lon="8.318433">
        <ele>90.560858</ele>
        <time>2026-07-03T19:48:45.825Z</time>
      </trkpt>
      <trkpt lat="51.775997" lon="8.317960">
        <ele>91.011033</ele>
        <time>2026-07-03T19:48:56.231Z</time>
      </trkpt>
      <trkpt lat="51.775966" lon="8.317683">
        <ele>91.278938</ele>
        <time>2026-07-03T19:49:02.492Z</time>
      </trkpt>
      <trkpt lat="51.775925" lon="8.317518">
        <ele>91.448163</ele>
        <time>2026-07-03T19:49:06.469Z</time>
      </trkpt>
      <trkpt lat="51.775897" lon="8.317418">
        <ele>91.552627</ele>
        <time>2026-07-03T19:49:08.909Z</time>
      </trkpt>
      <trkpt lat="51.775866" lon="8.317294">
        <ele>91.679910</ele>
        <time>2026-07-03T19:49:11.904Z</time>
      </trkpt>
      <trkpt lat="51.775691" lon="8.316584">
        <ele>92.192377</ele>
        <time>2026-07-03T19:49:28.430Z</time>
      </trkpt>
      <trkpt lat="51.775620" lon="8.316477">
        <ele>92.241387</ele>
        <time>2026-07-03T19:49:31.675Z</time>
      </trkpt>
      <trkpt lat="51.775608" lon="8.315775">
        <ele>92.460757</ele>
        <time>2026-07-03T19:49:42.503Z</time>
      </trkpt>
      <trkpt lat="51.775604" lon="8.315547">
        <ele>92.532007</ele>
        <time>2026-07-03T19:49:45.760Z</time>
      </trkpt>
      <trkpt lat="51.775599" lon="8.315224">
        <ele>92.632936</ele>
        <time>2026-07-03T19:49:50.308Z</time>
      </trkpt>
      <trkpt lat="51.775579" lon="8.314514">
        <ele>92.854952</ele>
        <time>2026-07-03T19:50:00.191Z</time>
      </trkpt>
      <trkpt lat="51.775573" lon="8.314178">
        <ele>92.959953</ele>
        <time>2026-07-03T19:50:04.835Z</time>
      </trkpt>
      <trkpt lat="51.775630" lon="8.313921">
        <ele>92.983660</ele>
        <time>2026-07-03T19:50:08.580Z</time>
      </trkpt>
      <trkpt lat="51.774879" lon="8.313614">
        <ele>92.891215</ele>
        <time>2026-07-03T19:50:25.656Z</time>
      </trkpt>
      <trkpt lat="51.774691" lon="8.313519">
        <ele>92.867709</ele>
        <time>2026-07-03T19:50:30.041Z</time>
      </trkpt>
      <trkpt lat="51.774422" lon="8.313308">
        <ele>92.832026</ele>
        <time>2026-07-03T19:50:36.745Z</time>
      </trkpt>
      <trkpt lat="51.774094" lon="8.312954">
        <ele>92.784958</ele>
        <time>2026-07-03T19:50:45.252Z</time>
      </trkpt>
      <trkpt lat="51.774206" lon="8.312438">
        <ele>92.535941</ele>
        <time>2026-07-03T19:50:52.242Z</time>
      </trkpt>
      <trkpt lat="51.774254" lon="8.311927">
        <ele>92.277861</ele>
        <time>2026-07-03T19:50:58.612Z</time>
      </trkpt>
      <trkpt lat="51.774268" lon="8.311476">
        <ele>92.052381</ele>
        <time>2026-07-03T19:51:04.047Z</time>
      </trkpt>
      <trkpt lat="51.774272" lon="8.310562">
        <ele>91.595984</ele>
        <time>2026-07-03T19:51:14.865Z</time>
      </trkpt>
      <trkpt lat="51.774123" lon="8.309485">
        <ele>91.045334</ele>
        <time>2026-07-03T19:51:28.060Z</time>
      </trkpt>
      <trkpt lat="51.773906" lon="8.307985">
        <ele>90.277232</ele>
        <time>2026-07-03T19:51:46.848Z</time>
      </trkpt>
      <trkpt lat="51.773823" lon="8.307544">
        <ele>90.047393</ele>
        <time>2026-07-03T19:51:52.624Z</time>
      </trkpt>
      <trkpt lat="51.773779" lon="8.307311">
        <ele>89.925923</ele>
        <time>2026-07-03T19:51:55.668Z</time>
      </trkpt>
      <trkpt lat="51.773315" lon="8.304892">
        <ele>88.981991</ele>
        <time>2026-07-03T19:52:27.168Z</time>
      </trkpt>
      <trkpt lat="51.771720" lon="8.300745">
        <ele>87.387044</ele>
        <time>2026-07-03T19:53:30.264Z</time>
      </trkpt>
      <trkpt lat="51.771133" lon="8.299653">
        <ele>86.736027</ele>
        <time>2026-07-03T19:53:47.429Z</time>
      </trkpt>
      <trkpt lat="51.770885" lon="8.299317">
        <ele>86.545354</ele>
        <time>2026-07-03T19:53:53.448Z</time>
      </trkpt>
      <trkpt lat="51.770543" lon="8.298631">
        <ele>86.224177</ele>
        <time>2026-07-03T19:54:03.733Z</time>
      </trkpt>
      <trkpt lat="51.770367" lon="8.298244">
        <ele>86.049075</ele>
        <time>2026-07-03T19:54:09.663Z</time>
      </trkpt>
      <trkpt lat="51.770223" lon="8.297856">
        <ele>85.884122</ele>
        <time>2026-07-03T19:54:15.518Z</time>
      </trkpt>
      <trkpt lat="51.770168" lon="8.297555">
        <ele>85.769696</ele>
        <time>2026-07-03T19:54:19.787Z</time>
      </trkpt>
      <trkpt lat="51.770179" lon="8.293298">
        <ele>88.604006</ele>
        <time>2026-07-03T19:55:33.127Z</time>
      </trkpt>
      <trkpt lat="51.770201" lon="8.293147">
        <ele>88.743554</ele>
        <time>2026-07-03T19:55:35.997Z</time>
      </trkpt>
      <trkpt lat="51.768223" lon="8.292642">
        <ele>91.383420</ele>
        <time>2026-07-03T19:56:35.331Z</time>
      </trkpt>
      <trkpt lat="51.768110" lon="8.290892">
        <ele>92.299270</ele>
        <time>2026-07-03T19:57:03.847Z</time>
      </trkpt>
      <trkpt lat="51.768138" lon="8.289874">
        <ele>92.254483</ele>
        <time>2026-07-03T19:57:18.690Z</time>
      </trkpt>
      <trkpt lat="51.768167" lon="8.289539">
        <ele>92.239616</ele>
        <time>2026-07-03T19:57:23.431Z</time>
      </trkpt>
      <trkpt lat="51.768330" lon="8.288520">
        <ele>92.193357</ele>
        <time>2026-07-03T19:57:37.469Z</time>
      </trkpt>
      <trkpt lat="51.768371" lon="8.288029">
        <ele>91.665756</ele>
        <time>2026-07-03T19:57:43.766Z</time>
      </trkpt>
      <trkpt lat="51.768339" lon="8.287564">
        <ele>91.152180</ele>
        <time>2026-07-03T19:57:49.487Z</time>
      </trkpt>
      <trkpt lat="51.768225" lon="8.286839">
        <ele>90.331060</ele>
        <time>2026-07-03T19:57:58.212Z</time>
      </trkpt>
      <trkpt lat="51.767676" lon="8.284843">
        <ele>87.545660</ele>
        <time>2026-07-03T19:58:22.151Z</time>
      </trkpt>
      <trkpt lat="51.767483" lon="8.284179">
        <ele>86.448287</ele>
        <time>2026-07-03T19:58:30.119Z</time>
      </trkpt>
      <trkpt lat="51.767267" lon="8.283447">
        <ele>85.235184</ele>
        <time>2026-07-03T19:58:39.093Z</time>
      </trkpt>
      <trkpt lat="51.767130" lon="8.282304">
        <ele>84.161478</ele>
        <time>2026-07-03T19:58:52.542Z</time>
      </trkpt>
      <trkpt lat="51.767144" lon="8.281791">
        <ele>83.835224</ele>
        <time>2026-07-03T19:58:58.745Z</time>
      </trkpt>
      <trkpt lat="51.767300" lon="8.280606">
        <ele>83.065483</ele>
        <time>2026-07-03T19:59:14.505Z</time>
      </trkpt>
      <trkpt lat="51.767576" lon="8.278678">
        <ele>82.900623</ele>
        <time>2026-07-03T19:59:42.972Z</time>
      </trkpt>
      <trkpt lat="51.767614" lon="8.275698">
        <ele>83.303156</ele>
        <time>2026-07-03T20:00:27.286Z</time>
      </trkpt>
      <trkpt lat="51.767625" lon="8.274666">
        <ele>83.506149</ele>
        <time>2026-07-03T20:00:43.082Z</time>
      </trkpt>
      <trkpt lat="51.767637" lon="8.273658">
        <ele>83.983171</ele>
        <time>2026-07-03T20:00:59.085Z</time>
      </trkpt>
      <trkpt lat="51.767646" lon="8.272856">
        <ele>84.426919</ele>
        <time>2026-07-03T20:01:12.288Z</time>
      </trkpt>
      <trkpt lat="51.767687" lon="8.270646">
        <ele>85.879037</ele>
        <time>2026-07-03T20:01:50.175Z</time>
      </trkpt>
      <trkpt lat="51.767745" lon="8.269296">
        <ele>86.976413</ele>
        <time>2026-07-03T20:02:13.846Z</time>
      </trkpt>
      <trkpt lat="51.767872" lon="8.266292">
        <ele>90.163781</ele>
        <time>2026-07-03T20:03:09.073Z</time>
      </trkpt>
      <trkpt lat="51.766250" lon="8.266224">
        <ele>93.034650</ele>
        <time>2026-07-03T20:04:00.918Z</time>
      </trkpt>
      <trkpt lat="51.764896" lon="8.266138">
        <ele>93.001946</ele>
        <time>2026-07-03T20:04:33.648Z</time>
      </trkpt>
      <trkpt lat="51.764622" lon="8.266102">
        <ele>92.688232</ele>
        <time>2026-07-03T20:04:38.628Z</time>
      </trkpt>
      <trkpt lat="51.763708" lon="8.265962">
        <ele>91.259156</ele>
        <time>2026-07-03T20:04:53.815Z</time>
      </trkpt>
      <trkpt lat="51.762334" lon="8.265768">
        <ele>87.364860</ele>
        <time>2026-07-03T20:05:16.085Z</time>
      </trkpt>
      <trkpt lat="51.762152" lon="8.265775">
        <ele>86.850835</ele>
        <time>2026-07-03T20:05:19.288Z</time>
      </trkpt>
      <trkpt lat="51.761827" lon="8.265795">
        <ele>87.253052</ele>
        <time>2026-07-03T20:05:25.436Z</time>
      </trkpt>
      <trkpt lat="51.761389" lon="8.265906">
        <ele>87.862395</ele>
        <time>2026-07-03T20:05:35.878Z</time>
      </trkpt>
      <trkpt lat="51.761212" lon="8.265880">
        <ele>88.106666</ele>
        <time>2026-07-03T20:05:40.952Z</time>
      </trkpt>
      <trkpt lat="51.761104" lon="8.265911">
        <ele>88.257424</ele>
        <time>2026-07-03T20:05:44.335Z</time>
      </trkpt>
      <trkpt lat="51.760901" lon="8.266089">
        <ele>88.574866</ele>
        <time>2026-07-03T20:05:51.980Z</time>
      </trkpt>
      <trkpt lat="51.759668" lon="8.266429">
        <ele>91.506337</ele>
        <time>2026-07-03T20:06:39.642Z</time>
      </trkpt>
      <trkpt lat="51.758974" lon="8.266636">
        <ele>93.650729</ele>
        <time>2026-07-03T20:07:04.328Z</time>
      </trkpt>
      <trkpt lat="51.758579" lon="8.266748">
        <ele>94.780551</ele>
        <time>2026-07-03T20:07:16.228Z</time>
      </trkpt>
      <trkpt lat="51.758396" lon="8.266755">
        <ele>94.893158</ele>
        <time>2026-07-03T20:07:21.206Z</time>
      </trkpt>
      <trkpt lat="51.758302" lon="8.266859">
        <ele>94.963243</ele>
        <time>2026-07-03T20:07:24.139Z</time>
      </trkpt>
      <trkpt lat="51.758189" lon="8.266898">
        <ele>95.034325</ele>
        <time>2026-07-03T20:07:27.058Z</time>
      </trkpt>
      <trkpt lat="51.758164" lon="8.266699">
        <ele>95.111644</ele>
        <time>2026-07-03T20:07:31.014Z</time>
      </trkpt>
      <trkpt lat="51.758142" lon="8.266348">
        <ele>95.245980</ele>
        <time>2026-07-03T20:07:36.297Z</time>
      </trkpt>
      <trkpt lat="51.758118" lon="8.265685">
        <ele>95.498866</ele>
        <time>2026-07-03T20:07:46.019Z</time>
      </trkpt>
      <trkpt lat="51.758108" lon="8.265132">
        <ele>95.709524</ele>
        <time>2026-07-03T20:07:54.179Z</time>
      </trkpt>
      <trkpt lat="51.758110" lon="8.264314">
        <ele>95.989128</ele>
        <time>2026-07-03T20:08:06.337Z</time>
      </trkpt>
      <trkpt lat="51.758102" lon="8.263858">
        <ele>96.127460</ele>
        <time>2026-07-03T20:08:13.141Z</time>
      </trkpt>
      <trkpt lat="51.758060" lon="8.262954">
        <ele>96.402356</ele>
        <time>2026-07-03T20:08:27.051Z</time>
      </trkpt>
      <trkpt lat="51.757978" lon="8.261916">
        <ele>96.719669</ele>
        <time>2026-07-03T20:08:43.983Z</time>
      </trkpt>
      <trkpt lat="51.757882" lon="8.261096">
        <ele>97.021629</ele>
        <time>2026-07-03T20:08:57.666Z</time>
      </trkpt>
      <trkpt lat="51.757912" lon="8.260672">
        <ele>97.178901</ele>
        <time>2026-07-03T20:09:04.698Z</time>
      </trkpt>
      <trkpt lat="51.758009" lon="8.259894">
        <ele>97.471372</ele>
        <time>2026-07-03T20:09:17.675Z</time>
      </trkpt>
      <trkpt lat="51.758016" lon="8.259449">
        <ele>97.635419</ele>
        <time>2026-07-03T20:09:24.712Z</time>
      </trkpt>
      <trkpt lat="51.758015" lon="8.258738">
        <ele>97.791034</ele>
        <time>2026-07-03T20:09:35.165Z</time>
      </trkpt>
      <trkpt lat="51.757946" lon="8.257911">
        <ele>97.694344</ele>
        <time>2026-07-03T20:09:46.662Z</time>
      </trkpt>
      <trkpt lat="51.757990" lon="8.256892">
        <ele>97.575987</ele>
        <time>2026-07-03T20:10:00.245Z</time>
      </trkpt>
      <trkpt lat="51.758021" lon="8.254654">
        <ele>97.980332</ele>
        <time>2026-07-03T20:10:32.068Z</time>
      </trkpt>
      <trkpt lat="51.757785" lon="8.252617">
        <ele>98.960641</ele>
        <time>2026-07-03T20:11:07.658Z</time>
      </trkpt>
      <trkpt lat="51.757734" lon="8.252084">
        <ele>99.381002</ele>
        <time>2026-07-03T20:11:17.429Z</time>
      </trkpt>
      <trkpt lat="51.757681" lon="8.251802">
        <ele>99.610705</ele>
        <time>2026-07-03T20:11:22.709Z</time>
      </trkpt>
      <trkpt lat="51.757292" lon="8.250517">
        <ele>100.725616</ele>
        <time>2026-07-03T20:11:47.552Z</time>
      </trkpt>
      <trkpt lat="51.757089" lon="8.249986">
        <ele>101.031823</ele>
        <time>2026-07-03T20:11:58.053Z</time>
      </trkpt>
      <trkpt lat="51.756976" lon="8.249517">
        <ele>101.261466</ele>
        <time>2026-07-03T20:12:06.411Z</time>
      </trkpt>
      <trkpt lat="51.756968" lon="8.249299">
        <ele>101.361113</ele>
        <time>2026-07-03T20:12:09.999Z</time>
      </trkpt>
      <trkpt lat="51.757036" lon="8.247856">
        <ele>102.021453</ele>
        <time>2026-07-03T20:12:32.941Z</time>
      </trkpt>
      <trkpt lat="51.757304" lon="8.247844">
        <ele>102.158703</ele>
        <time>2026-07-03T20:12:39.688Z</time>
      </trkpt>
      <trkpt lat="51.757385" lon="8.244933">
        <ele>102.748623</ele>
        <time>2026-07-03T20:13:23.834Z</time>
      </trkpt>
      <trkpt lat="51.757403" lon="8.243788">
        <ele>102.793631</ele>
        <time>2026-07-03T20:13:40.846Z</time>
      </trkpt>
      <trkpt lat="51.757413" lon="8.243189">
        <ele>102.817178</ele>
        <time>2026-07-03T20:13:49.464Z</time>
      </trkpt>
      <trkpt lat="51.755020" lon="8.242980">
        <ele>102.567508</ele>
        <time>2026-07-03T20:15:16.010Z</time>
      </trkpt>
      <trkpt lat="51.754931" lon="8.242972">
        <ele>102.602931</ele>
        <time>2026-07-03T20:15:19.404Z</time>
      </trkpt>
      <trkpt lat="51.754013" lon="8.243007">
        <ele>102.967850</ele>
        <time>2026-07-03T20:15:55.435Z</time>
      </trkpt>
      <trkpt lat="51.752375" lon="8.243036">
        <ele>103.338843</ele>
        <time>2026-07-03T20:16:59.383Z</time>
      </trkpt>
      <trkpt lat="51.752286" lon="8.243175">
        <ele>103.349017</ele>
        <time>2026-07-03T20:17:03.823Z</time>
      </trkpt>
      <trkpt lat="51.751220" lon="8.243039">
        <ele>103.368126</ele>
        <time>2026-07-03T20:17:42.072Z</time>
      </trkpt>
      <trkpt lat="51.751178" lon="8.242900">
        <ele>103.352704</ele>
        <time>2026-07-03T20:17:44.149Z</time>
      </trkpt>
      <trkpt lat="51.751111" lon="8.242897">
        <ele>103.341908</ele>
        <time>2026-07-03T20:17:46.478Z</time>
      </trkpt>
      <trkpt lat="51.747553" lon="8.242749">
        <ele>103.155579</ele>
        <time>2026-07-03T20:19:57.382Z</time>
      </trkpt>
      <trkpt lat="51.747476" lon="8.242704">
        <ele>103.178555</ele>
        <time>2026-07-03T20:20:00.505Z</time>
      </trkpt>
      <trkpt lat="51.747614" lon="8.241694">
        <ele>103.358230</ele>
        <time>2026-07-03T20:20:16.328Z</time>
      </trkpt>
      <trkpt lat="51.747614" lon="8.241526">
        <ele>103.387414</ele>
        <time>2026-07-03T20:20:18.951Z</time>
      </trkpt>
      <trkpt lat="51.747589" lon="8.241469">
        <ele>103.399549</ele>
        <time>2026-07-03T20:20:20.050Z</time>
      </trkpt>
      <trkpt lat="51.747501" lon="8.241388">
        <ele>103.427968</ele>
        <time>2026-07-03T20:20:22.636Z</time>
      </trkpt>
      <trkpt lat="51.746275" lon="8.240839">
        <ele>103.627376</ele>
        <time>2026-07-03T20:20:54.299Z</time>
      </trkpt>
      <trkpt lat="51.746048" lon="8.240507">
        <ele>103.656654</ele>
        <time>2026-07-03T20:21:01.437Z</time>
      </trkpt>
      <trkpt lat="51.746263" lon="8.240165">
        <ele>103.685505</ele>
        <time>2026-07-03T20:21:07.992Z</time>
      </trkpt>
      <trkpt lat="51.746225" lon="8.240116">
        <ele>103.690154</ele>
        <time>2026-07-03T20:21:09.075Z</time>
      </trkpt>
      <trkpt lat="51.746066" lon="8.239964">
        <ele>103.707818</ele>
        <time>2026-07-03T20:21:13.159Z</time>
      </trkpt>
      <trkpt lat="51.743834" lon="8.237975">
        <ele>102.613804</ele>
        <time>2026-07-03T20:22:08.175Z</time>
      </trkpt>
      <trkpt lat="51.743612" lon="8.237825">
        <ele>102.480481</ele>
        <time>2026-07-03T20:22:13.228Z</time>
      </trkpt>
      <trkpt lat="51.743086" lon="8.237662">
        <ele>102.183750</ele>
        <time>2026-07-03T20:22:24.592Z</time>
      </trkpt>
      <trkpt lat="51.742845" lon="8.237588">
        <ele>102.047839</ele>
        <time>2026-07-03T20:22:29.826Z</time>
      </trkpt>
      <trkpt lat="51.742101" lon="8.237380">
        <ele>101.577031</ele>
        <time>2026-07-03T20:22:45.707Z</time>
      </trkpt>
      <trkpt lat="51.742058" lon="8.237365">
        <ele>101.548953</ele>
        <time>2026-07-03T20:22:46.624Z</time>
      </trkpt>
      <trkpt lat="51.741500" lon="8.237079">
        <ele>101.175300</ele>
        <time>2026-07-03T20:22:58.970Z</time>
      </trkpt>
      <trkpt lat="51.741448" lon="8.237053">
        <ele>101.140556</ele>
        <time>2026-07-03T20:23:00.132Z</time>
      </trkpt>
      <trkpt lat="51.741137" lon="8.236895">
        <ele>100.932468</ele>
        <time>2026-07-03T20:23:07.139Z</time>
      </trkpt>
      <trkpt lat="51.740881" lon="8.236771">
        <ele>100.763630</ele>
        <time>2026-07-03T20:23:12.772Z</time>
      </trkpt>
      <trkpt lat="51.740288" lon="8.236462">
        <ele>100.376645</ele>
        <time>2026-07-03T20:23:25.650Z</time>
      </trkpt>
      <trkpt lat="51.739358" lon="8.235982">
        <ele>99.770278</ele>
        <time>2026-07-03T20:23:46.222Z</time>
      </trkpt>
      <trkpt lat="51.739283" lon="8.235923">
        <ele>99.718466</ele>
        <time>2026-07-03T20:23:48.029Z</time>
      </trkpt>
      <trkpt lat="51.738748" lon="8.235504">
        <ele>99.458065</ele>
        <time>2026-07-03T20:24:01.151Z</time>
      </trkpt>
      <trkpt lat="51.738696" lon="8.235779">
        <ele>99.380883</ele>
        <time>2026-07-03T20:24:05.140Z</time>
      </trkpt>
      <trkpt lat="51.738649" lon="8.236032">
        <ele>99.309981</ele>
        <time>2026-07-03T20:24:08.800Z</time>
      </trkpt>
      <trkpt lat="51.738636" lon="8.236101">
        <ele>99.290621</ele>
        <time>2026-07-03T20:24:09.802Z</time>
      </trkpt>
      <trkpt lat="51.738595" lon="8.236321">
        <ele>99.228951</ele>
        <time>2026-07-03T20:24:13.028Z</time>
      </trkpt>
      <trkpt lat="51.738583" lon="8.236381">
        <ele>99.212026</ele>
        <time>2026-07-03T20:24:13.883Z</time>
      </trkpt>
      <trkpt lat="51.738569" lon="8.236449">
        <ele>99.192791</ele>
        <time>2026-07-03T20:24:14.861Z</time>
      </trkpt>
      <trkpt lat="51.738516" lon="8.236651">
        <ele>99.133902</ele>
        <time>2026-07-03T20:24:18.663Z</time>
      </trkpt>
      <trkpt lat="51.738465" lon="8.236912">
        <ele>99.060437</ele>
        <time>2026-07-03T20:24:24.644Z</time>
      </trkpt>
      <trkpt lat="51.738521" lon="8.237814">
        <ele>98.645874</ele>
        <time>2026-07-03T20:24:44.221Z</time>
      </trkpt>
      <trkpt lat="51.738546" lon="8.237810">
        <ele>98.618467</ele>
        <time>2026-07-03T20:24:44.724Z</time>
      </trkpt>
      <trkpt lat="51.738634" lon="8.237796">
        <ele>98.522003</ele>
        <time>2026-07-03T20:24:46.501Z</time>
      </trkpt>
      <trkpt lat="51.738670" lon="8.238326">
        <ele>98.161818</ele>
        <time>2026-07-03T20:24:52.995Z</time>
      </trkpt>
      <trkpt lat="51.738698" lon="8.238825">
        <ele>97.823342</ele>
        <time>2026-07-03T20:24:59.009Z</time>
      </trkpt>
      <trkpt lat="51.738704" lon="8.238899">
        <ele>97.772925</ele>
        <time>2026-07-03T20:24:59.892Z</time>
      </trkpt>
      <trkpt lat="51.738704" lon="8.238965">
        <ele>97.728339</ele>
        <time>2026-07-03T20:25:00.688Z</time>
      </trkpt>
      <trkpt lat="51.738703" lon="8.239355">
        <ele>97.464876</ele>
        <time>2026-07-03T20:25:05.340Z</time>
      </trkpt>
      <trkpt lat="51.738686" lon="8.239935">
        <ele>97.072623</ele>
        <time>2026-07-03T20:25:12.368Z</time>
      </trkpt>
      <trkpt lat="51.738630" lon="8.240681">
        <ele>96.770044</ele>
        <time>2026-07-03T20:25:21.969Z</time>
      </trkpt>
      <trkpt lat="51.738621" lon="8.240750">
        <ele>96.746655</ele>
        <time>2026-07-03T20:25:22.872Z</time>
      </trkpt>
      <trkpt lat="51.738539" lon="8.241310">
        <ele>96.555789</ele>
        <time>2026-07-03T20:25:30.492Z</time>
      </trkpt>
      <trkpt lat="51.738499" lon="8.241563">
        <ele>96.469180</ele>
        <time>2026-07-03T20:25:33.966Z</time>
      </trkpt>
      <trkpt lat="51.738450" lon="8.241838">
        <ele>96.374265</ele>
        <time>2026-07-03T20:25:37.777Z</time>
      </trkpt>
      <trkpt lat="51.738393" lon="8.242156">
        <ele>96.264459</ele>
        <time>2026-07-03T20:25:42.213Z</time>
      </trkpt>
      <trkpt lat="51.738347" lon="8.242382">
        <ele>96.185552</ele>
        <time>2026-07-03T20:25:45.467Z</time>
      </trkpt>
      <trkpt lat="51.738333" lon="8.242450">
        <ele>96.161784</ele>
        <time>2026-07-03T20:25:46.454Z</time>
      </trkpt>
      <trkpt lat="51.738322" lon="8.242496">
        <ele>96.145428</ele>
        <time>2026-07-03T20:25:47.135Z</time>
      </trkpt>
      <trkpt lat="51.738299" lon="8.242583">
        <ele>96.114051</ele>
        <time>2026-07-03T20:25:48.460Z</time>
      </trkpt>
      <trkpt lat="51.738114" lon="8.243223">
        <ele>95.832928</ele>
        <time>2026-07-03T20:25:58.524Z</time>
      </trkpt>
      <trkpt lat="51.737993" lon="8.243671">
        <ele>95.609885</ele>
        <time>2026-07-03T20:26:05.201Z</time>
      </trkpt>
      <trkpt lat="51.737950" lon="8.243847">
        <ele>95.523542</ele>
        <time>2026-07-03T20:26:07.727Z</time>
      </trkpt>
      <trkpt lat="51.737881" lon="8.244119">
        <ele>95.389404</ele>
        <time>2026-07-03T20:26:11.538Z</time>
      </trkpt>
      <trkpt lat="51.737817" lon="8.244368">
        <ele>95.266374</ele>
        <time>2026-07-03T20:26:14.958Z</time>
      </trkpt>
      <trkpt lat="51.737812" lon="8.244433">
        <ele>95.236483</ele>
        <time>2026-07-03T20:26:15.802Z</time>
      </trkpt>
      <trkpt lat="51.737766" lon="8.244609">
        <ele>95.149305</ele>
        <time>2026-07-03T20:26:18.216Z</time>
      </trkpt>
      <trkpt lat="51.737681" lon="8.244898">
        <ele>95.003300</ele>
        <time>2026-07-03T20:26:22.230Z</time>
      </trkpt>
      <trkpt lat="51.737570" lon="8.245028">
        <ele>94.902252</ele>
        <time>2026-07-03T20:26:24.967Z</time>
      </trkpt>
      <trkpt lat="51.737350" lon="8.245297">
        <ele>94.698895</ele>
        <time>2026-07-03T20:26:30.397Z</time>
      </trkpt>
      <trkpt lat="51.737127" lon="8.245570">
        <ele>94.420959</ele>
        <time>2026-07-03T20:26:35.817Z</time>
      </trkpt>
      <trkpt lat="51.737101" lon="8.245606">
        <ele>94.386004</ele>
        <time>2026-07-03T20:26:36.472Z</time>
      </trkpt>
      <trkpt lat="51.737065" lon="8.245658">
        <ele>94.336709</ele>
        <time>2026-07-03T20:26:37.406Z</time>
      </trkpt>
      <trkpt lat="51.737052" lon="8.245711">
        <ele>94.300679</ele>
        <time>2026-07-03T20:26:38.079Z</time>
      </trkpt>
      <trkpt lat="51.736866" lon="8.246550">
        <ele>93.737456</ele>
        <time>2026-07-03T20:26:48.718Z</time>
      </trkpt>
      <trkpt lat="51.736826" lon="8.246917">
        <ele>93.501938</ele>
        <time>2026-07-03T20:26:53.239Z</time>
      </trkpt>
      <trkpt lat="51.736820" lon="8.247001">
        <ele>93.448496</ele>
        <time>2026-07-03T20:26:54.260Z</time>
      </trkpt>
      <trkpt lat="51.736805" lon="8.247175">
        <ele>93.337462</ele>
        <time>2026-07-03T20:26:56.444Z</time>
      </trkpt>
      <trkpt lat="51.736781" lon="8.247168">
        <ele>93.312572</ele>
        <time>2026-07-03T20:26:58.154Z</time>
      </trkpt>
      <trkpt lat="51.736779" lon="8.247186">
        <ele>93.301014</ele>
        <time>2026-07-03T20:26:58.923Z</time>
      </trkpt>
      <trkpt lat="51.736772" lon="8.247261">
        <ele>93.253076</ele>
        <time>2026-07-03T20:27:02.199Z</time>
      </trkpt>
      <trkpt lat="51.736779" lon="8.247186">
        <ele>93.205139</ele>
        <time>2026-07-03T20:27:05.474Z</time>
      </trkpt>
      <trkpt lat="51.736781" lon="8.247168">
        <ele>93.193581</ele>
        <time>2026-07-03T20:27:06.243Z</time>
      </trkpt>
      <trkpt lat="51.736805" lon="8.247175">
        <ele>93.168690</ele>
        <time>2026-07-03T20:27:07.953Z</time>
      </trkpt>
      <trkpt lat="51.736820" lon="8.247001">
        <ele>93.057657</ele>
        <time>2026-07-03T20:27:10.190Z</time>
      </trkpt>
      <trkpt lat="51.736744" lon="8.246972">
        <ele>92.977956</ele>
        <time>2026-07-03T20:27:11.826Z</time>
      </trkpt>
      <trkpt lat="51.736394" lon="8.246837">
        <ele>92.923116</ele>
        <time>2026-07-03T20:27:20.132Z</time>
      </trkpt>
      <trkpt lat="51.736292" lon="8.246814">
        <ele>92.959183</ele>
        <time>2026-07-03T20:27:22.754Z</time>
      </trkpt>
      <trkpt lat="51.736210" lon="8.246884">
        <ele>92.991666</ele>
        <time>2026-07-03T20:27:25.080Z</time>
      </trkpt>
      <trkpt lat="51.735980" lon="8.247498">
        <ele>93.147294</ele>
        <time>2026-07-03T20:27:36.577Z</time>
      </trkpt>
      <trkpt lat="51.735668" lon="8.248303">
        <ele>93.353253</ele>
        <time>2026-07-03T20:27:51.497Z</time>
      </trkpt>
      <trkpt lat="51.735284" lon="8.249295">
        <ele>93.019536</ele>
        <time>2026-07-03T20:28:07.813Z</time>
      </trkpt>
      <trkpt lat="51.735262" lon="8.249352">
        <ele>92.970138</ele>
        <time>2026-07-03T20:28:08.694Z</time>
      </trkpt>
      <trkpt lat="51.735236" lon="8.249409">
        <ele>92.918070</ele>
        <time>2026-07-03T20:28:09.601Z</time>
      </trkpt>
      <trkpt lat="51.735038" lon="8.249247">
        <ele>92.654456</ele>
        <time>2026-07-03T20:28:13.957Z</time>
      </trkpt>
      <trkpt lat="51.734704" lon="8.249119">
        <ele>92.246769</ele>
        <time>2026-07-03T20:28:20.317Z</time>
      </trkpt>
      <trkpt lat="51.734468" lon="8.249027">
        <ele>91.958436</ele>
        <time>2026-07-03T20:28:24.714Z</time>
      </trkpt>
      <trkpt lat="51.734308" lon="8.248966">
        <ele>91.763190</ele>
        <time>2026-07-03T20:28:27.556Z</time>
      </trkpt>
      <trkpt lat="51.734030" lon="8.248957">
        <ele>91.432963</ele>
        <time>2026-07-03T20:28:32.309Z</time>
      </trkpt>
      <trkpt lat="51.733906" lon="8.248950">
        <ele>91.247387</ele>
        <time>2026-07-03T20:28:34.441Z</time>
      </trkpt>
      <trkpt lat="51.733833" lon="8.248880">
        <ele>91.071675</ele>
        <time>2026-07-03T20:28:35.912Z</time>
      </trkpt>
      <trkpt lat="51.733761" lon="8.248942">
        <ele>90.902799</ele>
        <time>2026-07-03T20:28:37.352Z</time>
      </trkpt>
      <trkpt lat="51.733664" lon="8.248970">
        <ele>90.698867</ele>
        <time>2026-07-03T20:28:39.070Z</time>
      </trkpt>
      <trkpt lat="51.733579" lon="8.248988">
        <ele>90.521446</ele>
        <time>2026-07-03T20:28:40.590Z</time>
      </trkpt>
      <trkpt lat="51.733436" lon="8.249002">
        <ele>90.224953</ele>
        <time>2026-07-03T20:28:43.107Z</time>
      </trkpt>
      <trkpt lat="51.733206" lon="8.249038">
        <ele>89.746718</ele>
        <time>2026-07-03T20:28:47.134Z</time>
      </trkpt>
      <trkpt lat="51.733028" lon="8.249085">
        <ele>89.373439</ele>
        <time>2026-07-03T20:28:50.283Z</time>
      </trkpt>
      <trkpt lat="51.732709" lon="8.249171">
        <ele>88.704104</ele>
        <time>2026-07-03T20:28:55.854Z</time>
      </trkpt>
      <trkpt lat="51.731806" lon="8.249580">
        <ele>86.934904</ele>
        <time>2026-07-03T20:29:12.391Z</time>
      </trkpt>
      <trkpt lat="51.731254" lon="8.249931">
        <ele>85.954777</ele>
        <time>2026-07-03T20:29:23.241Z</time>
      </trkpt>
      <trkpt lat="51.731302" lon="8.249979">
        <ele>85.861498</ele>
        <time>2026-07-03T20:29:24.688Z</time>
      </trkpt>
      <trkpt lat="51.730776" lon="8.250352">
        <ele>84.912378</ele>
        <time>2026-07-03T20:29:35.262Z</time>
      </trkpt>
      <trkpt lat="51.730764" lon="8.250359">
        <ele>84.891298</ele>
        <time>2026-07-03T20:29:35.497Z</time>
      </trkpt>
      <trkpt lat="51.730396" lon="8.250628">
        <ele>84.230383</ele>
        <time>2026-07-03T20:29:48.597Z</time>
      </trkpt>
      <trkpt lat="51.729003" lon="8.251661">
        <ele>81.736912</ele>
        <time>2026-07-03T20:30:16.012Z</time>
      </trkpt>
      <trkpt lat="51.728972" lon="8.251618">
        <ele>81.684422</ele>
        <time>2026-07-03T20:30:16.760Z</time>
      </trkpt>
      <trkpt lat="51.728783" lon="8.257366">
        <ele>77.924227</ele>
        <time>2026-07-03T20:31:28.510Z</time>
      </trkpt>
      <trkpt lat="51.728780" lon="8.257457">
        <ele>77.888843</ele>
        <time>2026-07-03T20:31:29.684Z</time>
      </trkpt>
      <trkpt lat="51.728622" lon="8.261809">
        <ele>76.583772</ele>
        <time>2026-07-03T20:32:27.386Z</time>
      </trkpt>
      <trkpt lat="51.728642" lon="8.261931">
        <ele>76.563580</ele>
        <time>2026-07-03T20:32:29.155Z</time>
      </trkpt>
      <trkpt lat="51.728683" lon="8.262013">
        <ele>76.546719</ele>
        <time>2026-07-03T20:32:30.610Z</time>
      </trkpt>
      <trkpt lat="51.728751" lon="8.262069">
        <ele>76.527000</ele>
        <time>2026-07-03T20:32:32.344Z</time>
      </trkpt>
      <trkpt lat="51.728867" lon="8.262229">
        <ele>76.487590</ele>
        <time>2026-07-03T20:32:35.687Z</time>
      </trkpt>
      <trkpt lat="51.728900" lon="8.262352">
        <ele>76.466143</ele>
        <time>2026-07-03T20:32:37.480Z</time>
      </trkpt>
      <trkpt lat="51.729637" lon="8.269085">
        <ele>76.854712</ele>
        <time>2026-07-03T20:34:14.153Z</time>
      </trkpt>
      <trkpt lat="51.729827" lon="8.270180">
        <ele>76.826361</ele>
        <time>2026-07-03T20:34:30.131Z</time>
      </trkpt>
      <trkpt lat="51.729897" lon="8.270640">
        <ele>76.814551</ele>
        <time>2026-07-03T20:34:36.587Z</time>
      </trkpt>
      <trkpt lat="51.729905" lon="8.270702">
        <ele>76.812973</ele>
        <time>2026-07-03T20:34:37.443Z</time>
      </trkpt>
      <trkpt lat="51.729939" lon="8.270947">
        <ele>76.806713</ele>
        <time>2026-07-03T20:34:40.806Z</time>
      </trkpt>
      <trkpt lat="51.729999" lon="8.272625">
        <ele>76.551677</ele>
        <time>2026-07-03T20:35:02.747Z</time>
      </trkpt>
      <trkpt lat="51.730080" lon="8.274614">
        <ele>76.128264</ele>
        <time>2026-07-03T20:35:28.596Z</time>
      </trkpt>
      <trkpt lat="51.730115" lon="8.275566">
        <ele>75.974580</ele>
        <time>2026-07-03T20:35:40.890Z</time>
      </trkpt>
      <trkpt lat="51.730132" lon="8.276437">
        <ele>75.834151</ele>
        <time>2026-07-03T20:35:52.219Z</time>
      </trkpt>
      <trkpt lat="51.730178" lon="8.277585">
        <ele>75.692563</ele>
        <time>2026-07-03T20:36:07.870Z</time>
      </trkpt>
      <trkpt lat="51.730300" lon="8.279418">
        <ele>75.700054</ele>
        <time>2026-07-03T20:36:34.363Z</time>
      </trkpt>
      <trkpt lat="51.730300" lon="8.279472">
        <ele>75.700273</ele>
        <time>2026-07-03T20:36:35.140Z</time>
      </trkpt>
      <trkpt lat="51.730282" lon="8.279974">
        <ele>75.702317</ele>
        <time>2026-07-03T20:36:42.077Z</time>
      </trkpt>
      <trkpt lat="51.730025" lon="8.282876">
        <ele>74.947294</ele>
        <time>2026-07-03T20:37:18.797Z</time>
      </trkpt>
      <trkpt lat="51.730020" lon="8.283093">
        <ele>74.888752</ele>
        <time>2026-07-03T20:37:21.560Z</time>
      </trkpt>
      <trkpt lat="51.730048" lon="8.283434">
        <ele>74.927750</ele>
        <time>2026-07-03T20:37:26.007Z</time>
      </trkpt>
      <trkpt lat="51.731788" lon="8.290643">
        <ele>75.786715</ele>
        <time>2026-07-03T20:39:17.503Z</time>
      </trkpt>
      <trkpt lat="51.731818" lon="8.290861">
        <ele>75.810250</ele>
        <time>2026-07-03T20:39:20.632Z</time>
      </trkpt>
      <trkpt lat="51.731845" lon="8.291486">
        <ele>75.834654</ele>
        <time>2026-07-03T20:39:29.233Z</time>
      </trkpt>
      <trkpt lat="51.731875" lon="8.293264">
        <ele>75.692838</ele>
        <time>2026-07-03T20:39:52.928Z</time>
      </trkpt>
      <trkpt lat="51.732175" lon="8.296598">
        <ele>75.525168</ele>
        <time>2026-07-03T20:40:38.350Z</time>
      </trkpt>
      <trkpt lat="51.732263" lon="8.297601">
        <ele>75.617998</ele>
        <time>2026-07-03T20:40:52.750Z</time>
      </trkpt>
      <trkpt lat="51.732366" lon="8.298170">
        <ele>75.730703</ele>
        <time>2026-07-03T20:41:01.511Z</time>
      </trkpt>
      <trkpt lat="51.732449" lon="8.298408">
        <ele>75.782632</ele>
        <time>2026-07-03T20:41:05.580Z</time>
      </trkpt>
      <trkpt lat="51.732599" lon="8.298723">
        <ele>75.858175</ele>
        <time>2026-07-03T20:41:11.501Z</time>
      </trkpt>
      <trkpt lat="51.732982" lon="8.299434">
        <ele>76.037327</ele>
        <time>2026-07-03T20:41:25.294Z</time>
      </trkpt>
      <trkpt lat="51.733214" lon="8.300000">
        <ele>75.993022</ele>
        <time>2026-07-03T20:41:34.916Z</time>
      </trkpt>
      <trkpt lat="51.733277" lon="8.300213">
        <ele>75.964499</ele>
        <time>2026-07-03T20:41:38.198Z</time>
      </trkpt>
      <trkpt lat="51.733751" lon="8.302362">
        <ele>75.705548</ele>
        <time>2026-07-03T20:42:07.872Z</time>
      </trkpt>
      <trkpt lat="51.733939" lon="8.302822">
        <ele>75.692962</ele>
        <time>2026-07-03T20:42:14.839Z</time>
      </trkpt>
      <trkpt lat="51.734157" lon="8.303174">
        <ele>75.681593</ele>
        <time>2026-07-03T20:42:21.292Z</time>
      </trkpt>
      <trkpt lat="51.734272" lon="8.303310">
        <ele>75.676337</ele>
        <time>2026-07-03T20:42:24.376Z</time>
      </trkpt>
      <trkpt lat="51.734341" lon="8.303382">
        <ele>75.673308</ele>
        <time>2026-07-03T20:42:26.154Z</time>
      </trkpt>
      <trkpt lat="51.734611" lon="8.303643">
        <ele>75.661704</ele>
        <time>2026-07-03T20:42:33.319Z</time>
      </trkpt>
      <trkpt lat="51.734826" lon="8.303931">
        <ele>75.651403</ele>
        <time>2026-07-03T20:42:39.947Z</time>
      </trkpt>
      <trkpt lat="51.734947" lon="8.304188">
        <ele>75.644031</ele>
        <time>2026-07-03T20:42:44.704Z</time>
      </trkpt>
      <trkpt lat="51.735352" lon="8.305520">
        <ele>75.888582</ele>
        <time>2026-07-03T20:43:07.177Z</time>
      </trkpt>
      <trkpt lat="51.735386" lon="8.305701">
        <ele>75.920736</ele>
        <time>2026-07-03T20:43:10.037Z</time>
      </trkpt>
      <trkpt lat="51.736087" lon="8.308976">
        <ele>76.141851</ele>
        <time>2026-07-03T20:43:57.921Z</time>
      </trkpt>
      <trkpt lat="51.736300" lon="8.310126">
        <ele>76.154476</ele>
        <time>2026-07-03T20:44:14.032Z</time>
      </trkpt>
      <trkpt lat="51.736350" lon="8.310856">
        <ele>76.170982</ele>
        <time>2026-07-03T20:44:24.142Z</time>
      </trkpt>
      <trkpt lat="51.736363" lon="8.311428">
        <ele>76.183845</ele>
        <time>2026-07-03T20:44:32.180Z</time>
      </trkpt>
      <trkpt lat="51.736402" lon="8.313131">
        <ele>76.191271</ele>
        <time>2026-07-03T20:44:56.332Z</time>
      </trkpt>
      <trkpt lat="51.736308" lon="8.315970">
        <ele>76.048463</ele>
        <time>2026-07-03T20:45:35.007Z</time>
      </trkpt>
      <trkpt lat="51.736233" lon="8.317162">
        <ele>75.880078</ele>
        <time>2026-07-03T20:45:50.695Z</time>
      </trkpt>
      <trkpt lat="51.736230" lon="8.317238">
        <ele>75.869376</ele>
        <time>2026-07-03T20:45:51.699Z</time>
      </trkpt>
      <trkpt lat="51.736157" lon="8.318378">
        <ele>75.708066</ele>
        <time>2026-07-03T20:46:06.674Z</time>
      </trkpt>
      <trkpt lat="51.736263" lon="8.319696">
        <ele>75.515002</ele>
        <time>2026-07-03T20:46:24.188Z</time>
      </trkpt>
      <trkpt lat="51.736438" lon="8.322636">
        <ele>75.216359</ele>
        <time>2026-07-03T20:47:03.429Z</time>
      </trkpt>
      <trkpt lat="51.736482" lon="8.324356">
        <ele>75.125185</ele>
        <time>2026-07-03T20:47:27.367Z</time>
      </trkpt>
      <trkpt lat="51.736488" lon="8.324604">
        <ele>75.113620</ele>
        <time>2026-07-03T20:47:30.845Z</time>
      </trkpt>
      <trkpt lat="51.736571" lon="8.325389">
        <ele>75.076512</ele>
        <time>2026-07-03T20:47:41.894Z</time>
      </trkpt>
      <trkpt lat="51.736868" lon="8.327611">
        <ele>75.061580</ele>
        <time>2026-07-03T20:48:12.333Z</time>
      </trkpt>
      <trkpt lat="51.737058" lon="8.328703">
        <ele>75.165212</ele>
        <time>2026-07-03T20:48:27.891Z</time>
      </trkpt>
      <trkpt lat="51.737116" lon="8.328933">
        <ele>75.187901</ele>
        <time>2026-07-03T20:48:31.413Z</time>
      </trkpt>
      <trkpt lat="51.737636" lon="8.331057">
        <ele>75.592659</ele>
        <time>2026-07-03T20:49:05.873Z</time>
      </trkpt>
      <trkpt lat="51.737640" lon="8.331187">
        <ele>75.622503</ele>
        <time>2026-07-03T20:49:07.858Z</time>
      </trkpt>
      <trkpt lat="51.737644" lon="8.331425">
        <ele>75.677094</ele>
        <time>2026-07-03T20:49:11.435Z</time>
      </trkpt>
      <trkpt lat="51.737628" lon="8.331609">
        <ele>75.719698</ele>
        <time>2026-07-03T20:49:14.183Z</time>
      </trkpt>
      <trkpt lat="51.737471" lon="8.332376">
        <ele>75.904922</ele>
        <time>2026-07-03T20:49:25.929Z</time>
      </trkpt>
      <trkpt lat="51.736940" lon="8.334412">
        <ele>75.793926</ele>
        <time>2026-07-03T20:49:55.930Z</time>
      </trkpt>
      <trkpt lat="51.736652" lon="8.335383">
        <ele>75.687049</ele>
        <time>2026-07-03T20:50:10.113Z</time>
      </trkpt>
      <trkpt lat="51.736603" lon="8.335637">
        <ele>75.633258</ele>
        <time>2026-07-03T20:50:13.598Z</time>
      </trkpt>
      <trkpt lat="51.736569" lon="8.335906">
        <ele>75.577748</ele>
        <time>2026-07-03T20:50:17.169Z</time>
      </trkpt>
      <trkpt lat="51.736544" lon="8.338457">
        <ele>75.157325</ele>
        <time>2026-07-03T20:50:50.217Z</time>
      </trkpt>
      <trkpt lat="51.736543" lon="8.338534">
        <ele>75.158161</ele>
        <time>2026-07-03T20:50:51.242Z</time>
      </trkpt>
      <trkpt lat="51.736539" lon="8.338815">
        <ele>75.161215</ele>
        <time>2026-07-03T20:50:54.993Z</time>
      </trkpt>
      <trkpt lat="51.736503" lon="8.342246">
        <ele>75.338810</ele>
        <time>2026-07-03T20:51:43.507Z</time>
      </trkpt>
      <trkpt lat="51.736453" lon="8.342554">
        <ele>75.375784</ele>
        <time>2026-07-03T20:51:48.090Z</time>
      </trkpt>
      <trkpt lat="51.736278" lon="8.343197">
        <ele>75.457343</ele>
        <time>2026-07-03T20:51:58.182Z</time>
      </trkpt>
      <trkpt lat="51.737108" lon="8.342430">
        <ele>75.524896</ele>
        <time>2026-07-03T20:52:19.987Z</time>
      </trkpt>
      <trkpt lat="51.737073" lon="8.342304">
        <ele>75.525399</ele>
        <time>2026-07-03T20:52:22.502Z</time>
      </trkpt>
      <trkpt lat="51.737088" lon="8.342172">
        <ele>75.525888</ele>
        <time>2026-07-03T20:52:24.955Z</time>
      </trkpt>
      <trkpt lat="51.737155" lon="8.342106">
        <ele>75.526350</ele>
        <time>2026-07-03T20:52:27.227Z</time>
      </trkpt>
      <trkpt lat="51.737164" lon="8.342105">
        <ele>75.526403</ele>
        <time>2026-07-03T20:52:27.515Z</time>
      </trkpt>
      <trkpt lat="51.737155" lon="8.342106">
        <ele>75.526456</ele>
        <time>2026-07-03T20:52:27.799Z</time>
      </trkpt>
      <trkpt lat="51.737088" lon="8.342172">
        <ele>75.526918</ele>
        <time>2026-07-03T20:52:30.057Z</time>
      </trkpt>
      <trkpt lat="51.737073" lon="8.342304">
        <ele>75.527407</ele>
        <time>2026-07-03T20:52:32.492Z</time>
      </trkpt>
      <trkpt lat="51.737108" lon="8.342430">
        <ele>75.527910</ele>
        <time>2026-07-03T20:52:34.980Z</time>
      </trkpt>
      <trkpt lat="51.736278" lon="8.343197">
        <ele>75.508024</ele>
        <time>2026-07-03T20:52:55.828Z</time>
      </trkpt>
      <trkpt lat="51.735266" lon="8.344788">
        <ele>75.390014</ele>
        <time>2026-07-03T20:53:26.763Z</time>
      </trkpt>
      <trkpt lat="51.735133" lon="8.345000">
        <ele>75.380183</ele>
        <time>2026-07-03T20:53:30.862Z</time>
      </trkpt>
      <trkpt lat="51.734759" lon="8.345563">
        <ele>75.371876</ele>
        <time>2026-07-03T20:53:42.127Z</time>
      </trkpt>
      <trkpt lat="51.734698" lon="8.345671">
        <ele>75.370406</ele>
        <time>2026-07-03T20:53:44.122Z</time>
      </trkpt>
      <trkpt lat="51.734584" lon="8.345854">
        <ele>75.367794</ele>
        <time>2026-07-03T20:53:47.677Z</time>
      </trkpt>
      <trkpt lat="51.733278" lon="8.347887">
        <ele>75.350377</ele>
        <time>2026-07-03T20:54:28.425Z</time>
      </trkpt>
      <trkpt lat="51.733436" lon="8.348233">
        <ele>75.349767</ele>
        <time>2026-07-03T20:54:34.371Z</time>
      </trkpt>
      <trkpt lat="51.733945" lon="8.350302">
        <ele>75.238825</ele>
        <time>2026-07-03T20:55:04.430Z</time>
      </trkpt>
      <trkpt lat="51.734086" lon="8.350799">
        <ele>75.186678</ele>
        <time>2026-07-03T20:55:11.728Z</time>
      </trkpt>
      <trkpt lat="51.734222" lon="8.351030">
        <ele>75.156274</ele>
        <time>2026-07-03T20:55:15.998Z</time>
      </trkpt>
      <trkpt lat="51.734389" lon="8.351186">
        <ele>75.126557</ele>
        <time>2026-07-03T20:55:20.175Z</time>
      </trkpt>
      <trkpt lat="51.735946" lon="8.351730">
        <ele>74.986080</ele>
        <time>2026-07-03T20:55:54.707Z</time>
      </trkpt>
      <trkpt lat="51.736505" lon="8.351926">
        <ele>74.948162</ele>
        <time>2026-07-03T20:56:07.452Z</time>
      </trkpt>
      <trkpt lat="51.736683" lon="8.351987">
        <ele>74.976111</ele>
        <time>2026-07-03T20:56:11.578Z</time>
      </trkpt>
      <trkpt lat="51.737294" lon="8.352337">
        <ele>75.075687</ele>
        <time>2026-07-03T20:56:26.528Z</time>
      </trkpt>
      <trkpt lat="51.737702" lon="8.352615">
        <ele>75.143704</ele>
        <time>2026-07-03T20:56:36.967Z</time>
      </trkpt>
      <trkpt lat="51.738470" lon="8.353392">
        <ele>75.154706</ele>
        <time>2026-07-03T20:56:57.465Z</time>
      </trkpt>
      <trkpt lat="51.738679" lon="8.353836">
        <ele>75.093552</ele>
        <time>2026-07-03T20:57:04.902Z</time>
      </trkpt>
      <trkpt lat="51.739605" lon="8.355339">
        <ele>74.880788</ele>
        <time>2026-07-03T20:57:32.573Z</time>
      </trkpt>
      <trkpt lat="51.740823" lon="8.357525">
        <ele>74.769989</ele>
        <time>2026-07-03T20:58:12.629Z</time>
      </trkpt>
      <trkpt lat="51.741080" lon="8.358017">
        <ele>74.829478</ele>
        <time>2026-07-03T20:58:21.661Z</time>
      </trkpt>
      <trkpt lat="51.741153" lon="8.358215">
        <ele>74.850775</ele>
        <time>2026-07-03T20:58:24.896Z</time>
      </trkpt>
      <trkpt lat="51.741284" lon="8.358969">
        <ele>74.923150</ele>
        <time>2026-07-03T20:58:36.051Z</time>
      </trkpt>
      <trkpt lat="51.741421" lon="8.360278">
        <ele>75.093308</ele>
        <time>2026-07-03T20:58:55.504Z</time>
      </trkpt>
      <trkpt lat="51.741550" lon="8.361173">
        <ele>75.262841</ele>
        <time>2026-07-03T20:59:08.936Z</time>
      </trkpt>
      <trkpt lat="51.741724" lon="8.361918">
        <ele>75.409738</ele>
        <time>2026-07-03T20:59:20.541Z</time>
      </trkpt>
      <trkpt lat="51.742850" lon="8.365338">
        <ele>75.735037</ele>
        <time>2026-07-03T21:00:14.944Z</time>
      </trkpt>
      <trkpt lat="51.743075" lon="8.365860">
        <ele>75.699592</ele>
        <time>2026-07-03T21:00:23.761Z</time>
      </trkpt>
      <trkpt lat="51.743679" lon="8.366545">
        <ele>75.633164</ele>
        <time>2026-07-03T21:00:39.689Z</time>
      </trkpt>
      <trkpt lat="51.743808" lon="8.366819">
        <ele>75.613981</ele>
        <time>2026-07-03T21:00:44.170Z</time>
      </trkpt>
      <trkpt lat="51.743903" lon="8.367158">
        <ele>75.593244</ele>
        <time>2026-07-03T21:00:49.099Z</time>
      </trkpt>
      <trkpt lat="51.744043" lon="8.368148">
        <ele>75.671381</ele>
        <time>2026-07-03T21:01:03.209Z</time>
      </trkpt>
      <trkpt lat="51.744070" lon="8.368315">
        <ele>75.686254</ele>
        <time>2026-07-03T21:01:05.704Z</time>
      </trkpt>
      <trkpt lat="51.744126" lon="8.368293">
        <ele>75.694274</ele>
        <time>2026-07-03T21:01:07.068Z</time>
      </trkpt>
      <trkpt lat="51.744203" lon="8.368264">
        <ele>75.705277</ele>
        <time>2026-07-03T21:01:08.924Z</time>
      </trkpt>
      <trkpt lat="51.744446" lon="8.368082">
        <ele>75.742554</ele>
        <time>2026-07-03T21:01:15.322Z</time>
      </trkpt>
      <trkpt lat="51.744918" lon="8.367466">
        <ele>75.827004</ele>
        <time>2026-07-03T21:01:29.296Z</time>
      </trkpt>
      <trkpt lat="51.745108" lon="8.367433">
        <ele>75.830382</ele>
        <time>2026-07-03T21:01:33.689Z</time>
      </trkpt>
      <trkpt lat="51.745239" lon="8.367463">
        <ele>75.817649</ele>
        <time>2026-07-03T21:01:36.746Z</time>
      </trkpt>
      <trkpt lat="51.745356" lon="8.367490">
        <ele>75.806276</ele>
        <time>2026-07-03T21:01:39.454Z</time>
      </trkpt>
      <trkpt lat="51.745537" lon="8.367641">
        <ele>75.786671</ele>
        <time>2026-07-03T21:01:43.996Z</time>
      </trkpt>
      <trkpt lat="51.745636" lon="8.367873">
        <ele>75.769882</ele>
        <time>2026-07-03T21:01:47.799Z</time>
      </trkpt>
      <trkpt lat="51.745705" lon="8.368139">
        <ele>75.752698</ele>
        <time>2026-07-03T21:01:51.650Z</time>
      </trkpt>
      <trkpt lat="51.745692" lon="8.369411">
        <ele>75.676898</ele>
        <time>2026-07-03T21:02:08.085Z</time>
      </trkpt>
      <trkpt lat="51.745671" lon="8.371332">
        <ele>75.644523</ele>
        <time>2026-07-03T21:02:34.712Z</time>
      </trkpt>
      <trkpt lat="51.748094" lon="8.371415">
        <ele>75.740600</ele>
        <time>2026-07-03T21:03:29.117Z</time>
      </trkpt>
      <trkpt lat="51.748132" lon="8.371416">
        <ele>75.743062</ele>
        <time>2026-07-03T21:03:29.970Z</time>
      </trkpt>
      <trkpt lat="51.748441" lon="8.371427">
        <ele>75.748514</ele>
        <time>2026-07-03T21:03:36.911Z</time>
      </trkpt>
      <trkpt lat="51.748558" lon="8.371431">
        <ele>75.749481</ele>
        <time>2026-07-03T21:03:39.544Z</time>
      </trkpt>
      <trkpt lat="51.748804" lon="8.371439">
        <ele>75.751514</ele>
        <time>2026-07-03T21:03:45.045Z</time>
      </trkpt>
      <trkpt lat="51.748880" lon="8.371442">
        <ele>75.752142</ele>
        <time>2026-07-03T21:03:46.762Z</time>
      </trkpt>
      <trkpt lat="51.748891" lon="8.371442">
        <ele>75.752233</ele>
        <time>2026-07-03T21:03:47.011Z</time>
      </trkpt>
      <trkpt lat="51.749777" lon="8.371472">
        <ele>75.759555</ele>
        <time>2026-07-03T21:04:06.774Z</time>
      </trkpt>
      <trkpt lat="51.749951" lon="8.372627">
        <ele>75.769195</ele>
        <time>2026-07-03T21:04:22.920Z</time>
      </trkpt>
      <trkpt lat="51.750354" lon="8.375369">
        <ele>75.951845</ele>
        <time>2026-07-03T21:05:02.066Z</time>
      </trkpt>
      <trkpt lat="51.750363" lon="8.375432">
        <ele>75.965568</ele>
        <time>2026-07-03T21:05:02.997Z</time>
      </trkpt>
      <trkpt lat="51.750488" lon="8.376483">
        <ele>76.192718</ele>
        <time>2026-07-03T21:05:18.867Z</time>
      </trkpt>
      <trkpt lat="51.750738" lon="8.379414">
        <ele>76.822618</ele>
        <time>2026-07-03T21:06:03.085Z</time>
      </trkpt>
      <trkpt lat="51.750846" lon="8.380843">
        <ele>76.984636</ele>
        <time>2026-07-03T21:06:23.154Z</time>
      </trkpt>
      <trkpt lat="51.750885" lon="8.381594">
        <ele>76.924096</ele>
        <time>2026-07-03T21:06:33.326Z</time>
      </trkpt>
      <trkpt lat="51.750880" lon="8.381837">
        <ele>76.904565</ele>
        <time>2026-07-03T21:06:36.603Z</time>
      </trkpt>
      <trkpt lat="51.750764" lon="8.382296">
        <ele>76.864739</ele>
        <time>2026-07-03T21:06:43.198Z</time>
      </trkpt>
      <trkpt lat="51.750723" lon="8.382404">
        <ele>76.854562</ele>
        <time>2026-07-03T21:06:45.427Z</time>
      </trkpt>
      <trkpt lat="51.751007" lon="8.382617">
        <ele>76.813932</ele>
        <time>2026-07-03T21:06:52.015Z</time>
      </trkpt>
      <trkpt lat="51.751283" lon="8.382943">
        <ele>76.780837</ele>
        <time>2026-07-03T21:06:59.387Z</time>
      </trkpt>
      <trkpt lat="51.751491" lon="8.383291">
        <ele>76.762496</ele>
        <time>2026-07-03T21:07:05.943Z</time>
      </trkpt>
      <trkpt lat="51.751688" lon="8.383793">
        <ele>76.739960</ele>
        <time>2026-07-03T21:07:14.029Z</time>
      </trkpt>
      <trkpt lat="51.751761" lon="8.383754">
        <ele>76.735251</ele>
        <time>2026-07-03T21:07:15.741Z</time>
      </trkpt>
      <trkpt lat="51.752245" lon="8.383475">
        <ele>76.703777</ele>
        <time>2026-07-03T21:07:26.998Z</time>
      </trkpt>
      <trkpt lat="51.752534" lon="8.383367">
        <ele>76.685610</ele>
        <time>2026-07-03T21:07:33.533Z</time>
      </trkpt>
      <trkpt lat="51.753007" lon="8.383313">
        <ele>76.723334</ele>
        <time>2026-07-03T21:07:44.255Z</time>
      </trkpt>
      <trkpt lat="51.753044" lon="8.383641">
        <ele>76.745590</ele>
        <time>2026-07-03T21:07:48.852Z</time>
      </trkpt>
      <trkpt lat="51.753457" lon="8.385347">
        <ele>76.867870</ele>
        <time>2026-07-03T21:08:14.431Z</time>
      </trkpt>
      <trkpt lat="51.753664" lon="8.386127">
        <ele>76.975116</ele>
        <time>2026-07-03T21:08:26.822Z</time>
      </trkpt>
      <trkpt lat="51.753815" lon="8.386692">
        <ele>77.057919</ele>
        <time>2026-07-03T21:08:35.822Z</time>
      </trkpt>
      <trkpt lat="51.754105" lon="8.387655">
        <ele>77.202010</ele>
        <time>2026-07-03T21:08:51.361Z</time>
      </trkpt>
      <trkpt lat="51.754334" lon="8.388433">
        <ele>77.270315</ele>
        <time>2026-07-03T21:09:03.265Z</time>
      </trkpt>
      <trkpt lat="51.754444" lon="8.388952">
        <ele>77.276906</ele>
        <time>2026-07-03T21:09:10.678Z</time>
      </trkpt>
      <trkpt lat="51.754434" lon="8.389172">
        <ele>77.279556</ele>
        <time>2026-07-03T21:09:13.681Z</time>
      </trkpt>
      <trkpt lat="51.754425" lon="8.389255">
        <ele>77.280569</ele>
        <time>2026-07-03T21:09:14.833Z</time>
      </trkpt>
      <trkpt lat="51.754397" lon="8.389250">
        <ele>77.281115</ele>
        <time>2026-07-03T21:09:15.463Z</time>
      </trkpt>
      <trkpt lat="51.754391" lon="8.389319">
        <ele>77.281952</ele>
        <time>2026-07-03T21:09:16.413Z</time>
      </trkpt>
      <trkpt lat="51.754386" lon="8.389478">
        <ele>77.283865</ele>
        <time>2026-07-03T21:09:18.617Z</time>
      </trkpt>
      <trkpt lat="51.754391" lon="8.389691">
        <ele>77.286426</ele>
        <time>2026-07-03T21:09:21.585Z</time>
      </trkpt>
      <trkpt lat="51.754484" lon="8.390124">
        <ele>77.291933</ele>
        <time>2026-07-03T21:09:27.917Z</time>
      </trkpt>
      <trkpt lat="51.754543" lon="8.390322">
        <ele>77.294573</ele>
        <time>2026-07-03T21:09:30.912Z</time>
      </trkpt>
      <trkpt lat="51.754556" lon="8.390365">
        <ele>77.295148</ele>
        <time>2026-07-03T21:09:31.557Z</time>
      </trkpt>
      <trkpt lat="51.754658" lon="8.390671">
        <ele>77.299323</ele>
        <time>2026-07-03T21:09:36.285Z</time>
      </trkpt>
      <trkpt lat="51.754864" lon="8.391216">
        <ele>77.328535</ele>
        <time>2026-07-03T21:09:45.137Z</time>
      </trkpt>
      <trkpt lat="51.755130" lon="8.391879">
        <ele>77.369779</ele>
        <time>2026-07-03T21:09:56.396Z</time>
      </trkpt>
      <trkpt lat="51.755645" lon="8.392909">
        <ele>77.438898</ele>
        <time>2026-07-03T21:10:14.842Z</time>
      </trkpt>
      <trkpt lat="51.755903" lon="8.393959">
        <ele>77.552245</ele>
        <time>2026-07-03T21:10:30.953Z</time>
      </trkpt>
      <trkpt lat="51.755982" lon="8.394373">
        <ele>77.601808</ele>
        <time>2026-07-03T21:10:39.023Z</time>
      </trkpt>
      <trkpt lat="51.756181" lon="8.395181">
        <ele>77.701296</ele>
        <time>2026-07-03T21:10:55.172Z</time>
      </trkpt>
      <trkpt lat="51.756583" lon="8.396692">
        <ele>77.843898</ele>
        <time>2026-07-03T21:11:25.861Z</time>
      </trkpt>
      <trkpt lat="51.756623" lon="8.396845">
        <ele>77.854639</ele>
        <time>2026-07-03T21:11:28.928Z</time>
      </trkpt>
      <trkpt lat="51.756956" lon="8.398350">
        <ele>77.957997</ele>
        <time>2026-07-03T21:11:58.214Z</time>
      </trkpt>
      <trkpt lat="51.757036" lon="8.398714">
        <ele>77.950547</ele>
        <time>2026-07-03T21:12:05.231Z</time>
      </trkpt>
      <trkpt lat="51.757127" lon="8.399161">
        <ele>77.886102</ele>
        <time>2026-07-03T21:12:13.780Z</time>
      </trkpt>
      <trkpt lat="51.757326" lon="8.400146">
        <ele>77.744196</ele>
        <time>2026-07-03T21:12:31.995Z</time>
      </trkpt>
      <trkpt lat="51.757401" lon="8.400508">
        <ele>77.691914</ele>
        <time>2026-07-03T21:12:38.539Z</time>
      </trkpt>
      <trkpt lat="51.757453" lon="8.400766">
        <ele>77.654753</ele>
        <time>2026-07-03T21:12:43.169Z</time>
      </trkpt>
      <trkpt lat="51.757537" lon="8.401112">
        <ele>77.603852</ele>
        <time>2026-07-03T21:12:48.175Z</time>
      </trkpt>
      <trkpt lat="51.757574" lon="8.401274">
        <ele>77.580203</ele>
        <time>2026-07-03T21:12:50.496Z</time>
      </trkpt>
      <trkpt lat="51.757570" lon="8.401450">
        <ele>77.565487</ele>
        <time>2026-07-03T21:12:52.884Z</time>
      </trkpt>
      <trkpt lat="51.757611" lon="8.401669">
        <ele>77.550054</ele>
        <time>2026-07-03T21:12:55.968Z</time>
      </trkpt>
      <trkpt lat="51.757691" lon="8.401777">
        <ele>77.538693</ele>
        <time>2026-07-03T21:12:58.262Z</time>
      </trkpt>
      <trkpt lat="51.757754" lon="8.402120">
        <ele>77.514560</ele>
        <time>2026-07-03T21:13:03.105Z</time>
      </trkpt>
      <trkpt lat="51.757747" lon="8.402264">
        <ele>77.504817</ele>
        <time>2026-07-03T21:13:05.064Z</time>
      </trkpt>
      <trkpt lat="51.757796" lon="8.402469">
        <ele>77.489994</ele>
        <time>2026-07-03T21:13:08.036Z</time>
      </trkpt>
      <trkpt lat="51.757841" lon="8.402507">
        <ele>77.484461</ele>
        <time>2026-07-03T21:13:09.131Z</time>
      </trkpt>
      <trkpt lat="51.757880" lon="8.402625">
        <ele>77.475438</ele>
        <time>2026-07-03T21:13:10.955Z</time>
      </trkpt>
      <trkpt lat="51.757874" lon="8.402703">
        <ele>77.470136</ele>
        <time>2026-07-03T21:13:12.024Z</time>
      </trkpt>
      <trkpt lat="51.757949" lon="8.402862">
        <ele>77.456652</ele>
        <time>2026-07-03T21:13:14.753Z</time>
      </trkpt>
      <trkpt lat="51.758113" lon="8.403071">
        <ele>77.433890</ele>
        <time>2026-07-03T21:13:19.463Z</time>
      </trkpt>
      <trkpt lat="51.758251" lon="8.403384">
        <ele>77.407969</ele>
        <time>2026-07-03T21:13:25.106Z</time>
      </trkpt>
      <trkpt lat="51.758335" lon="8.403422">
        <ele>77.398463</ele>
        <time>2026-07-03T21:13:27.242Z</time>
      </trkpt>
      <trkpt lat="51.758460" lon="8.403593">
        <ele>77.380614</ele>
        <time>2026-07-03T21:13:31.368Z</time>
      </trkpt>
      <trkpt lat="51.758733" lon="8.403700">
        <ele>77.479929</ele>
        <time>2026-07-03T21:13:38.595Z</time>
      </trkpt>
      <trkpt lat="51.758877" lon="8.403815">
        <ele>77.541918</ele>
        <time>2026-07-03T21:13:42.701Z</time>
      </trkpt>
      <trkpt lat="51.758964" lon="8.403911">
        <ele>77.582576</ele>
        <time>2026-07-03T21:13:45.383Z</time>
      </trkpt>
      <trkpt lat="51.759368" lon="8.404116">
        <ele>77.745991</ele>
        <time>2026-07-03T21:13:56.077Z</time>
      </trkpt>
      <trkpt lat="51.759523" lon="8.404179">
        <ele>77.807670</ele>
        <time>2026-07-03T21:14:00.078Z</time>
      </trkpt>
      <trkpt lat="51.759665" lon="8.404262">
        <ele>77.865945</ele>
        <time>2026-07-03T21:14:03.838Z</time>
      </trkpt>
      <trkpt lat="51.759719" lon="8.404343">
        <ele>77.894381</ele>
        <time>2026-07-03T21:14:05.647Z</time>
      </trkpt>
      <trkpt lat="51.759886" lon="8.404435">
        <ele>77.962471</ele>
        <time>2026-07-03T21:14:10.007Z</time>
      </trkpt>
      <trkpt lat="51.760016" lon="8.404456">
        <ele>78.012889</ele>
        <time>2026-07-03T21:14:13.209Z</time>
      </trkpt>
      <trkpt lat="51.760319" lon="8.404640">
        <ele>78.058949</ele>
        <time>2026-07-03T21:14:20.972Z</time>
      </trkpt>
      <trkpt lat="51.760377" lon="8.404727">
        <ele>78.052487</ele>
        <time>2026-07-03T21:14:22.795Z</time>
      </trkpt>
      <trkpt lat="51.760837" lon="8.404982">
        <ele>78.012776</ele>
        <time>2026-07-03T21:14:33.601Z</time>
      </trkpt>
      <trkpt lat="51.763719" lon="8.406626">
        <ele>77.611852</ele>
        <time>2026-07-03T21:15:39.781Z</time>
      </trkpt>
      <trkpt lat="51.763376" lon="8.409462">
        <ele>77.348568</ele>
        <time>2026-07-03T21:16:18.650Z</time>
      </trkpt>
      <trkpt lat="51.763382" lon="8.409624">
        <ele>77.326891</ele>
        <time>2026-07-03T21:16:20.838Z</time>
      </trkpt>
      <trkpt lat="51.763451" lon="8.409759">
        <ele>77.303504</ele>
        <time>2026-07-03T21:16:23.206Z</time>
      </trkpt>
      <trkpt lat="51.763968" lon="8.410347">
        <ele>77.167057</ele>
        <time>2026-07-03T21:16:36.919Z</time>
      </trkpt>
      <trkpt lat="51.765235" lon="8.411788">
        <ele>76.840677</ele>
        <time>2026-07-03T21:17:09.859Z</time>
      </trkpt>
      <trkpt lat="51.768668" lon="8.415661">
        <ele>76.135956</ele>
        <time>2026-07-03T21:18:40.013Z</time>
      </trkpt>
      <trkpt lat="51.769598" lon="8.416691">
        <ele>76.101431</ele>
        <time>2026-07-03T21:19:05.655Z</time>
      </trkpt>
      <trkpt lat="51.770437" lon="8.414863">
        <ele>76.066048</ele>
        <time>2026-07-03T21:19:36.548Z</time>
      </trkpt>
      <trkpt lat="51.771374" lon="8.412820">
        <ele>75.848423</ele>
        <time>2026-07-03T21:20:10.491Z</time>
      </trkpt>
      <trkpt lat="51.771402" lon="8.412861">
        <ele>75.847360</ele>
        <time>2026-07-03T21:20:11.314Z</time>
      </trkpt>
      <trkpt lat="51.771486" lon="8.412968">
        <ele>75.844350</ele>
        <time>2026-07-03T21:20:13.668Z</time>
      </trkpt>
      <trkpt lat="51.773819" lon="8.416400">
        <ele>75.858724</ele>
        <time>2026-07-03T21:21:24.099Z</time>
      </trkpt>
      <trkpt lat="51.774459" lon="8.417728">
        <ele>76.024296</ele>
        <time>2026-07-03T21:21:48.055Z</time>
      </trkpt>
      <trkpt lat="51.775574" lon="8.420109">
        <ele>76.250061</ele>
        <time>2026-07-03T21:22:30.426Z</time>
      </trkpt>
      <trkpt lat="51.776321" lon="8.421704">
        <ele>76.388618</ele>
        <time>2026-07-03T21:22:57.452Z</time>
      </trkpt>
      <trkpt lat="51.776359" lon="8.421661">
        <ele>76.403198</ele>
        <time>2026-07-03T21:22:58.472Z</time>
      </trkpt>
      <trkpt lat="51.776433" lon="8.421580">
        <ele>76.431289</ele>
        <time>2026-07-03T21:23:00.510Z</time>
      </trkpt>
      <trkpt lat="51.776453" lon="8.421558">
        <ele>76.438893</ele>
        <time>2026-07-03T21:23:01.059Z</time>
      </trkpt>
      <trkpt lat="51.776579" lon="8.421417">
        <ele>76.487061</ele>
        <time>2026-07-03T21:23:04.595Z</time>
      </trkpt>
      <trkpt lat="51.776875" lon="8.421096">
        <ele>76.599096</ele>
        <time>2026-07-03T21:23:13.142Z</time>
      </trkpt>
      <trkpt lat="51.777034" lon="8.420973">
        <ele>76.654500</ele>
        <time>2026-07-03T21:23:17.485Z</time>
      </trkpt>
      <trkpt lat="51.777474" lon="8.420779">
        <ele>76.797846</ele>
        <time>2026-07-03T21:23:28.475Z</time>
      </trkpt>
      <trkpt lat="51.777945" lon="8.420533">
        <ele>77.004630</ele>
        <time>2026-07-03T21:23:40.581Z</time>
      </trkpt>
      <trkpt lat="51.778255" lon="8.420269">
        <ele>77.172992</ele>
        <time>2026-07-03T21:23:49.550Z</time>
      </trkpt>
      <trkpt lat="51.778514" lon="8.420050">
        <ele>77.313439</ele>
        <time>2026-07-03T21:23:56.828Z</time>
      </trkpt>
      <trkpt lat="51.779848" lon="8.418927">
        <ele>77.738020</ele>
        <time>2026-07-03T21:24:31.848Z</time>
      </trkpt>
      <trkpt lat="51.780058" lon="8.418795">
        <ele>77.743935</ele>
        <time>2026-07-03T21:24:36.959Z</time>
      </trkpt>
      <trkpt lat="51.780595" lon="8.418549">
        <ele>77.758588</ele>
        <time>2026-07-03T21:24:49.348Z</time>
      </trkpt>
      <trkpt lat="51.780811" lon="8.418363">
        <ele>77.765013</ele>
        <time>2026-07-03T21:24:54.532Z</time>
      </trkpt>
      <trkpt lat="51.780882" lon="8.418526">
        <ele>77.764934</ele>
        <time>2026-07-03T21:24:57.131Z</time>
      </trkpt>
      <trkpt lat="51.780990" lon="8.418934">
        <ele>77.673184</ele>
        <time>2026-07-03T21:25:02.772Z</time>
      </trkpt>
      <trkpt lat="51.781890" lon="8.422292">
        <ele>77.130253</ele>
        <time>2026-07-03T21:25:50.534Z</time>
      </trkpt>
      <trkpt lat="51.781936" lon="8.422356">
        <ele>77.127281</ele>
        <time>2026-07-03T21:25:51.877Z</time>
      </trkpt>
      <trkpt lat="51.782050" lon="8.422512">
        <ele>77.119969</ele>
        <time>2026-07-03T21:25:55.084Z</time>
      </trkpt>
      <trkpt lat="51.782967" lon="8.423229">
        <ele>77.103581</ele>
        <time>2026-07-03T21:26:18.601Z</time>
      </trkpt>
      <trkpt lat="51.783029" lon="8.423271">
        <ele>77.112851</ele>
        <time>2026-07-03T21:26:20.178Z</time>
      </trkpt>
      <trkpt lat="51.783123" lon="8.423324">
        <ele>77.126577</ele>
        <time>2026-07-03T21:26:22.376Z</time>
      </trkpt>
      <trkpt lat="51.783183" lon="8.423347">
        <ele>77.135080</ele>
        <time>2026-07-03T21:26:23.773Z</time>
      </trkpt>
      <trkpt lat="51.783217" lon="8.423363">
        <ele>77.139962</ele>
        <time>2026-07-03T21:26:24.565Z</time>
      </trkpt>
      <trkpt lat="51.784525" lon="8.423997">
        <ele>77.325660</ele>
        <time>2026-07-03T21:26:55.896Z</time>
      </trkpt>
      <trkpt lat="51.785594" lon="8.424505">
        <ele>77.189968</ele>
        <time>2026-07-03T21:27:20.010Z</time>
      </trkpt>
      <trkpt lat="51.786980" lon="8.425162">
        <ele>77.175044</ele>
        <time>2026-07-03T21:27:51.324Z</time>
      </trkpt>
      <trkpt lat="51.787136" lon="8.425319">
        <ele>77.191086</ele>
        <time>2026-07-03T21:27:55.472Z</time>
      </trkpt>
      <trkpt lat="51.787278" lon="8.425563">
        <ele>77.209176</ele>
        <time>2026-07-03T21:28:00.225Z</time>
      </trkpt>
      <trkpt lat="51.788522" lon="8.427866">
        <ele>77.492004</ele>
        <time>2026-07-03T21:28:44.315Z</time>
      </trkpt>
      <trkpt lat="51.788653" lon="8.428182">
        <ele>77.534644</ele>
        <time>2026-07-03T21:28:49.565Z</time>
      </trkpt>
      <trkpt lat="51.789066" lon="8.429303">
        <ele>77.589728</ele>
        <time>2026-07-03T21:29:07.506Z</time>
      </trkpt>
      <trkpt lat="51.789332" lon="8.429857">
        <ele>77.588810</ele>
        <time>2026-07-03T21:29:17.090Z</time>
      </trkpt>
      <trkpt lat="51.789411" lon="8.430072">
        <ele>77.588482</ele>
        <time>2026-07-03T21:29:20.579Z</time>
      </trkpt>
      <trkpt lat="51.789451" lon="8.430271">
        <ele>77.588208</ele>
        <time>2026-07-03T21:29:23.526Z</time>
      </trkpt>
      <trkpt lat="51.789809" lon="8.430231">
        <ele>77.587448</ele>
        <time>2026-07-03T21:29:31.664Z</time>
      </trkpt>
      <trkpt lat="51.789899" lon="8.430157">
        <ele>77.587234</ele>
        <time>2026-07-03T21:29:33.936Z</time>
      </trkpt>
      <trkpt lat="51.789978" lon="8.430221">
        <ele>77.587047</ele>
        <time>2026-07-03T21:29:35.931Z</time>
      </trkpt>
      <trkpt lat="51.790273" lon="8.430430">
        <ele>77.539143</ele>
        <time>2026-07-03T21:29:43.024Z</time>
      </trkpt>
      <trkpt lat="51.790369" lon="8.430439">
        <ele>77.523109</ele>
        <time>2026-07-03T21:29:45.102Z</time>
      </trkpt>
      <trkpt lat="51.790508" lon="8.430376">
        <ele>77.499037</ele>
        <time>2026-07-03T21:29:48.192Z</time>
      </trkpt>
      <trkpt lat="51.790780" lon="8.430170">
        <ele>77.448952</ele>
        <time>2026-07-03T21:29:54.586Z</time>
      </trkpt>
      <trkpt lat="51.790963" lon="8.430026">
        <ele>77.415014</ele>
        <time>2026-07-03T21:29:58.883Z</time>
      </trkpt>
      <trkpt lat="51.791273" lon="8.429690">
        <ele>77.352781</ele>
        <time>2026-07-03T21:30:06.813Z</time>
      </trkpt>
      <trkpt lat="51.791336" lon="8.429622">
        <ele>77.340150</ele>
        <time>2026-07-03T21:30:08.381Z</time>
      </trkpt>
      <trkpt lat="51.791818" lon="8.429180">
        <ele>77.363838</ele>
        <time>2026-07-03T21:30:20.393Z</time>
      </trkpt>
      <trkpt lat="51.792035" lon="8.429072">
        <ele>77.437805</ele>
        <time>2026-07-03T21:30:25.497Z</time>
      </trkpt>
      <trkpt lat="51.792361" lon="8.428970">
        <ele>77.545978</ele>
        <time>2026-07-03T21:30:33.233Z</time>
      </trkpt>
      <trkpt lat="51.792425" lon="8.428950">
        <ele>77.567214</ele>
        <time>2026-07-03T21:30:34.835Z</time>
      </trkpt>
      <trkpt lat="51.793960" lon="8.428554">
        <ele>78.057084</ele>
        <time>2026-07-03T21:31:12.599Z</time>
      </trkpt>
      <trkpt lat="51.793966" lon="8.428745">
        <ele>78.092444</ele>
        <time>2026-07-03T21:31:15.456Z</time>
      </trkpt>
      <trkpt lat="51.795558" lon="8.428344">
        <ele>78.701087</ele>
        <time>2026-07-03T21:31:52.380Z</time>
      </trkpt>
      <trkpt lat="51.796100" lon="8.428207">
        <ele>78.992525</ele>
        <time>2026-07-03T21:32:05.850Z</time>
      </trkpt>
      <trkpt lat="51.796092" lon="8.428097">
        <ele>79.028916</ele>
        <time>2026-07-03T21:32:07.605Z</time>
      </trkpt>
      <trkpt lat="51.797789" lon="8.427687">
        <ele>79.721343</ele>
        <time>2026-07-03T21:32:51.502Z</time>
      </trkpt>
      <trkpt lat="51.797880" lon="8.427663">
        <ele>79.751635</ele>
        <time>2026-07-03T21:32:53.665Z</time>
      </trkpt>
      <trkpt lat="51.798296" lon="8.427554">
        <ele>79.890086</ele>
        <time>2026-07-03T21:33:03.006Z</time>
      </trkpt>
      <trkpt lat="51.799693" lon="8.427188">
        <ele>78.757569</ele>
        <time>2026-07-03T21:33:30.416Z</time>
      </trkpt>
      <trkpt lat="51.799704" lon="8.427285">
        <ele>78.697161</ele>
        <time>2026-07-03T21:33:31.699Z</time>
      </trkpt>
      <trkpt lat="51.799760" lon="8.427975">
        <ele>78.270885</ele>
        <time>2026-07-03T21:33:40.842Z</time>
      </trkpt>
      <trkpt lat="51.799877" lon="8.429281">
        <ele>77.431919</ele>
        <time>2026-07-03T21:33:58.217Z</time>
      </trkpt>
      <trkpt lat="51.799918" lon="8.429485">
        <ele>77.294882</ele>
        <time>2026-07-03T21:34:01.039Z</time>
      </trkpt>
      <trkpt lat="51.800095" lon="8.429982">
        <ele>76.928481</ele>
        <time>2026-07-03T21:34:08.647Z</time>
      </trkpt>
      <trkpt lat="51.800219" lon="8.431606">
        <ele>76.247636</ele>
        <time>2026-07-03T21:34:30.926Z</time>
      </trkpt>
      <trkpt lat="51.800281" lon="8.431775">
        <ele>76.227454</ele>
        <time>2026-07-03T21:34:33.695Z</time>
      </trkpt>
      <trkpt lat="51.800333" lon="8.431816">
        <ele>76.217846</ele>
        <time>2026-07-03T21:34:35.000Z</time>
      </trkpt>
      <trkpt lat="51.801637" lon="8.432158">
        <ele>76.040018</ele>
        <time>2026-07-03T21:35:08.516Z</time>
      </trkpt>
      <trkpt lat="51.802081" lon="8.431934">
        <ele>76.120968</ele>
        <time>2026-07-03T21:35:20.570Z</time>
      </trkpt>
      <trkpt lat="51.803312" lon="8.431356">
        <ele>76.355735</ele>
        <time>2026-07-03T21:35:52.757Z</time>
      </trkpt>
      <trkpt lat="51.803711" lon="8.431344">
        <ele>76.491199</ele>
        <time>2026-07-03T21:36:02.993Z</time>
      </trkpt>
      <trkpt lat="51.804606" lon="8.431317">
        <ele>76.795062</ele>
        <time>2026-07-03T21:36:26.546Z</time>
      </trkpt>
      <trkpt lat="51.804654" lon="8.431260">
        <ele>76.815276</ele>
        <time>2026-07-03T21:36:28.131Z</time>
      </trkpt>
      <trkpt lat="51.804751" lon="8.431302">
        <ele>76.849363</ele>
        <time>2026-07-03T21:36:30.736Z</time>
      </trkpt>
      <trkpt lat="51.804839" lon="8.431641">
        <ele>76.926534</ele>
        <time>2026-07-03T21:36:36.751Z</time>
      </trkpt>
      <trkpt lat="51.804953" lon="8.431768">
        <ele>76.982297</ele>
        <time>2026-07-03T21:36:40.417Z</time>
      </trkpt>
      <trkpt lat="51.805085" lon="8.431901">
        <ele>77.049944</ele>
        <time>2026-07-03T21:36:46.505Z</time>
      </trkpt>
      <trkpt lat="51.805235" lon="8.431998">
        <ele>77.120212</ele>
        <time>2026-07-03T21:36:50.809Z</time>
      </trkpt>
      <trkpt lat="51.805248" lon="8.432103">
        <ele>77.149013</ele>
        <time>2026-07-03T21:36:52.555Z</time>
      </trkpt>
      <trkpt lat="51.805189" lon="8.432522">
        <ele>77.264590</ele>
        <time>2026-07-03T21:36:59.556Z</time>
      </trkpt>
      <trkpt lat="51.805229" lon="8.432699">
        <ele>77.315275</ele>
        <time>2026-07-03T21:37:02.558Z</time>
      </trkpt>
      <trkpt lat="51.805769" lon="8.433383">
        <ele>77.613625</ele>
        <time>2026-07-03T21:37:20.719Z</time>
      </trkpt>
      <trkpt lat="51.805774" lon="8.433474">
        <ele>77.638196</ele>
        <time>2026-07-03T21:37:22.251Z</time>
      </trkpt>
      <trkpt lat="51.806011" lon="8.433632">
        <ele>77.751401</ele>
        <time>2026-07-03T21:37:28.523Z</time>
      </trkpt>
      <trkpt lat="51.806064" lon="8.433632">
        <ele>77.776024</ele>
        <time>2026-07-03T21:37:29.817Z</time>
      </trkpt>
      <trkpt lat="51.806726" lon="8.432992">
        <ele>78.134344</ele>
        <time>2026-07-03T21:37:48.059Z</time>
      </trkpt>
      <trkpt lat="51.806818" lon="8.432894">
        <ele>78.185524</ele>
        <time>2026-07-03T21:37:51.396Z</time>
      </trkpt>
      <trkpt lat="51.806998" lon="8.432956">
        <ele>78.271026</ele>
        <time>2026-07-03T21:37:57.037Z</time>
      </trkpt>
      <trkpt lat="51.807071" lon="8.432882">
        <ele>78.311052</ele>
        <time>2026-07-03T21:37:59.698Z</time>
      </trkpt>
      <trkpt lat="51.807126" lon="8.432828">
        <ele>78.340945</ele>
        <time>2026-07-03T21:38:01.229Z</time>
      </trkpt>
      <trkpt lat="51.807154" lon="8.432800">
        <ele>78.356239</ele>
        <time>2026-07-03T21:38:02.256Z</time>
      </trkpt>
      <trkpt lat="51.807189" lon="8.432766">
        <ele>78.375207</ele>
        <time>2026-07-03T21:38:03.870Z</time>
      </trkpt>
      <trkpt lat="51.807376" lon="8.432568">
        <ele>78.479048</ele>
        <time>2026-07-03T21:38:10.835Z</time>
      </trkpt>
      <trkpt lat="51.807464" lon="8.432474">
        <ele>78.528044</ele>
        <time>2026-07-03T21:38:14.148Z</time>
      </trkpt>
      <trkpt lat="51.807951" lon="8.431994">
        <ele>78.972534</ele>
        <time>2026-07-03T21:38:32.520Z</time>
      </trkpt>
      <trkpt lat="51.808030" lon="8.431868">
        <ele>79.063854</ele>
        <time>2026-07-03T21:38:36.226Z</time>
      </trkpt>
      <trkpt lat="51.808207" lon="8.431800">
        <ele>79.213590</ele>
        <time>2026-07-03T21:38:42.299Z</time>
      </trkpt>
      <trkpt lat="51.808262" lon="8.431708">
        <ele>79.278714</ele>
        <time>2026-07-03T21:38:45.004Z</time>
      </trkpt>
      <trkpt lat="51.808281" lon="8.431545">
        <ele>79.363125</ele>
        <time>2026-07-03T21:38:49.242Z</time>
      </trkpt>
      <trkpt lat="51.808330" lon="8.431388">
        <ele>79.452624</ele>
        <time>2026-07-03T21:38:52.414Z</time>
      </trkpt>
      <trkpt lat="51.808512" lon="8.431193">
        <ele>79.632309</ele>
        <time>2026-07-03T21:38:58.780Z</time>
      </trkpt>
      <trkpt lat="51.808699" lon="8.430650">
        <ele>79.948611</ele>
        <time>2026-07-03T21:39:09.692Z</time>
      </trkpt>
      <trkpt lat="51.808857" lon="8.430364">
        <ele>80.044103</ele>
        <time>2026-07-03T21:39:16.225Z</time>
      </trkpt>
      <trkpt lat="51.809111" lon="8.429985">
        <ele>80.053425</ele>
        <time>2026-07-03T21:39:25.242Z</time>
      </trkpt>
      <trkpt lat="51.809193" lon="8.429921">
        <ele>80.055881</ele>
        <time>2026-07-03T21:39:27.544Z</time>
      </trkpt>
      <trkpt lat="51.809239" lon="8.429807">
        <ele>80.058152</ele>
        <time>2026-07-03T21:39:29.648Z</time>
      </trkpt>
      <trkpt lat="51.809381" lon="8.429611">
        <ele>80.063188</ele>
        <time>2026-07-03T21:39:34.240Z</time>
      </trkpt>
      <trkpt lat="51.810004" lon="8.428870">
        <ele>80.084048</ele>
        <time>2026-07-03T21:39:52.560Z</time>
      </trkpt>
      <trkpt lat="51.810029" lon="8.428842">
        <ele>80.084869</ele>
        <time>2026-07-03T21:39:53.274Z</time>
      </trkpt>
      <trkpt lat="51.810076" lon="8.428786">
        <ele>80.086443</ele>
        <time>2026-07-03T21:39:54.899Z</time>
      </trkpt>
      <trkpt lat="51.810378" lon="8.428374">
        <ele>79.963807</ele>
        <time>2026-07-03T21:40:05.878Z</time>
      </trkpt>
      <trkpt lat="51.810508" lon="8.428099">
        <ele>79.871624</ele>
        <time>2026-07-03T21:40:11.892Z</time>
      </trkpt>
      <trkpt lat="51.810739" lon="8.428302">
        <ele>79.758394</ele>
        <time>2026-07-03T21:40:19.269Z</time>
      </trkpt>
      <trkpt lat="51.811150" lon="8.428684">
        <ele>79.554229</ele>
        <time>2026-07-03T21:40:32.315Z</time>
      </trkpt>
      <trkpt lat="51.811243" lon="8.428631">
        <ele>79.511760</ele>
        <time>2026-07-03T21:40:35.001Z</time>
      </trkpt>
      <trkpt lat="51.811371" lon="8.428802">
        <ele>79.440256</ele>
        <time>2026-07-03T21:40:38.503Z</time>
      </trkpt>
      <trkpt lat="51.811683" lon="8.429042">
        <ele>79.310930</ele>
        <time>2026-07-03T21:40:45.916Z</time>
      </trkpt>
      <trkpt lat="51.812045" lon="8.429054">
        <ele>79.286444</ele>
        <time>2026-07-03T21:40:53.920Z</time>
      </trkpt>
      <trkpt lat="51.812301" lon="8.429010">
        <ele>79.269033</ele>
        <time>2026-07-03T21:40:59.715Z</time>
      </trkpt>
      <trkpt lat="51.812376" lon="8.428996">
        <ele>79.263928</ele>
        <time>2026-07-03T21:41:01.337Z</time>
      </trkpt>
      <trkpt lat="51.812384" lon="8.429096">
        <ele>79.259712</ele>
        <time>2026-07-03T21:41:03.153Z</time>
      </trkpt>
      <trkpt lat="51.812959" lon="8.428989">
        <ele>79.220569</ele>
        <time>2026-07-03T21:41:20.156Z</time>
      </trkpt>
      <trkpt lat="51.813027" lon="8.428979">
        <ele>79.215951</ele>
        <time>2026-07-03T21:41:22.217Z</time>
      </trkpt>
      <trkpt lat="51.813079" lon="8.428981">
        <ele>79.212434</ele>
        <time>2026-07-03T21:41:23.798Z</time>
      </trkpt>
      <trkpt lat="51.813311" lon="8.429018">
        <ele>79.196668</ele>
        <time>2026-07-03T21:41:30.920Z</time>
      </trkpt>
      <trkpt lat="51.813779" lon="8.429177">
        <ele>79.181852</ele>
        <time>2026-07-03T21:41:45.538Z</time>
      </trkpt>
      <trkpt lat="51.814743" lon="8.429472">
        <ele>79.156171</ele>
        <time>2026-07-03T21:42:13.746Z</time>
      </trkpt>
      <trkpt lat="51.815640" lon="8.429673">
        <ele>79.053133</ele>
        <time>2026-07-03T21:42:39.777Z</time>
      </trkpt>
      <trkpt lat="51.816499" lon="8.429788">
        <ele>78.896702</ele>
        <time>2026-07-03T21:43:03.804Z</time>
      </trkpt>
      <trkpt lat="51.817276" lon="8.429890">
        <ele>78.819406</ele>
        <time>2026-07-03T21:43:26.818Z</time>
      </trkpt>
      <trkpt lat="51.817634" lon="8.429941">
        <ele>78.819406</ele>
        <time>2026-07-03T21:43:37.146Z</time>
      </trkpt>
      <trkpt lat="51.817627" lon="8.430092">
        <ele>78.819406</ele>
        <time>2026-07-03T21:43:40.536Z</time>
      </trkpt>
      <trkpt lat="51.817610" lon="8.430259">
        <ele>78.819406</ele>
        <time>2026-07-03T21:43:43.585Z</time>
      </trkpt>
      <trkpt lat="51.817635" lon="8.430427">
        <ele>78.819406</ele>
        <time>2026-07-03T21:43:46.700Z</time>
      </trkpt>
      <trkpt lat="51.817677" lon="8.430708">
        <ele>78.819406</ele>
        <time>2026-07-03T21:43:52.002Z</time>
      </trkpt>
      <trkpt lat="51.817772" lon="8.430695">
        <ele>78.819406</ele>
        <time>2026-07-03T21:43:54.867Z</time>
      </trkpt>
      <trkpt lat="51.817822" lon="8.430711">
        <ele>78.819406</ele>
        <time>2026-07-03T21:43:56.434Z</time>
      </trkpt>
    </trkseg>
  </trk>
</gpx>